<?xml version="1.0" encoding="UTF-8" standalone="no" ?>
<gpx xmlns="http://www.topografix.com/GPX/1/1" xmlns:xsi="http://www.w3.org/2001/XMLSchema-instance" xsi:schemaLocation="http://www.topografix.com/GPX/1/1 http://www.topografix.com/GPX/1/1/gpx.xsd" version="1.1" creator="VisuGPX - https://www.visugpx.com">
  <metadata>
    <name>64 - VTT - Monein à Pau via la Voie Verte</name>
    <desc><![CDATA[Travail en longeur]]></desc>
  </metadata>
  <trk>
    <name><![CDATA[ACTIVE LOG]]></name>
    <trkseg>
      <trkpt lat="43.31568" lon="-0.58653">
        <ele>250.560791</ele>
        <time>2013-09-30T07:22:40Z</time>
      </trkpt>
      <trkpt lat="43.31568" lon="-0.58653">
        <ele>250.560791</ele>
        <time>2013-09-30T07:22:42Z</time>
      </trkpt>
      <trkpt lat="43.31567" lon="-0.58653">
        <ele>251.522095</ele>
        <time>2013-09-30T07:22:44Z</time>
      </trkpt>
      <trkpt lat="43.31569" lon="-0.58652">
        <ele>250.0802</ele>
        <time>2013-09-30T07:22:57Z</time>
      </trkpt>
      <trkpt lat="43.31569" lon="-0.5865">
        <ele>251.522095</ele>
        <time>2013-09-30T07:23:00Z</time>
      </trkpt>
      <trkpt lat="43.31574" lon="-0.58654">
        <ele>250.560791</ele>
        <time>2013-09-30T07:23:12Z</time>
      </trkpt>
      <trkpt lat="43.31575" lon="-0.58654">
        <ele>249.599487</ele>
        <time>2013-09-30T07:23:57Z</time>
      </trkpt>
      <trkpt lat="43.31575" lon="-0.58651">
        <ele>249.118774</ele>
        <time>2013-09-30T07:24:14Z</time>
      </trkpt>
      <trkpt lat="43.31582" lon="-0.58634">
        <ele>250.0802</ele>
        <time>2013-09-30T07:24:21Z</time>
      </trkpt>
      <trkpt lat="43.31585" lon="-0.58585">
        <ele>246.234863</ele>
        <time>2013-09-30T07:24:27Z</time>
      </trkpt>
      <trkpt lat="43.31581" lon="-0.58545">
        <ele>242.870239</ele>
        <time>2013-09-30T07:24:33Z</time>
      </trkpt>
      <trkpt lat="43.31594" lon="-0.58533">
        <ele>241.428223</ele>
        <time>2013-09-30T07:24:37Z</time>
      </trkpt>
      <trkpt lat="43.31636" lon="-0.58523">
        <ele>237.102295</ele>
        <time>2013-09-30T07:24:42Z</time>
      </trkpt>
      <trkpt lat="43.31659" lon="-0.5852">
        <ele>231.334351</ele>
        <time>2013-09-30T07:24:44Z</time>
      </trkpt>
      <trkpt lat="43.31679" lon="-0.58517">
        <ele>227.008545</ele>
        <time>2013-09-30T07:24:46Z</time>
      </trkpt>
      <trkpt lat="43.31689" lon="-0.58516">
        <ele>225.085938</ele>
        <time>2013-09-30T07:24:47Z</time>
      </trkpt>
      <trkpt lat="43.3173" lon="-0.58491">
        <ele>219.317993</ele>
        <time>2013-09-30T07:24:51Z</time>
      </trkpt>
      <trkpt lat="43.31769" lon="-0.58451">
        <ele>214.51123</ele>
        <time>2013-09-30T07:24:55Z</time>
      </trkpt>
      <trkpt lat="43.31785" lon="-0.5843">
        <ele>213.550049</ele>
        <time>2013-09-30T07:24:57Z</time>
      </trkpt>
      <trkpt lat="43.31822" lon="-0.58365">
        <ele>214.991943</ele>
        <time>2013-09-30T07:25:05Z</time>
      </trkpt>
      <trkpt lat="43.31847" lon="-0.58322">
        <ele>217.395386</ele>
        <time>2013-09-30T07:25:19Z</time>
      </trkpt>
      <trkpt lat="43.31878" lon="-0.58245">
        <ele>220.279175</ele>
        <time>2013-09-30T07:25:39Z</time>
      </trkpt>
      <trkpt lat="43.31893" lon="-0.58216">
        <ele>219.798584</ele>
        <time>2013-09-30T07:25:48Z</time>
      </trkpt>
      <trkpt lat="43.31907" lon="-0.58168">
        <ele>216.914673</ele>
        <time>2013-09-30T07:25:55Z</time>
      </trkpt>
      <trkpt lat="43.31932" lon="-0.58139">
        <ele>214.03064</ele>
        <time>2013-09-30T07:25:59Z</time>
      </trkpt>
      <trkpt lat="43.31942" lon="-0.58128">
        <ele>212.588623</ele>
        <time>2013-09-30T07:26:01Z</time>
      </trkpt>
      <trkpt lat="43.31954" lon="-0.58116">
        <ele>209.704834</ele>
        <time>2013-09-30T07:26:04Z</time>
      </trkpt>
      <trkpt lat="43.31973" lon="-0.58119">
        <ele>208.262817</ele>
        <time>2013-09-30T07:26:09Z</time>
      </trkpt>
      <trkpt lat="43.3201" lon="-0.58165">
        <ele>207.782104</ele>
        <time>2013-09-30T07:26:21Z</time>
      </trkpt>
      <trkpt lat="43.32039" lon="-0.58178">
        <ele>206.820679</ele>
        <time>2013-09-30T07:26:28Z</time>
      </trkpt>
      <trkpt lat="43.3206" lon="-0.58187">
        <ele>207.782104</ele>
        <time>2013-09-30T07:26:33Z</time>
      </trkpt>
      <trkpt lat="43.32112" lon="-0.58209">
        <ele>208.743408</ele>
        <time>2013-09-30T07:26:47Z</time>
      </trkpt>
      <trkpt lat="43.32136" lon="-0.58223">
        <ele>207.782104</ele>
        <time>2013-09-30T07:26:56Z</time>
      </trkpt>
      <trkpt lat="43.32157" lon="-0.58197">
        <ele>206.340088</ele>
        <time>2013-09-30T07:27:02Z</time>
      </trkpt>
      <trkpt lat="43.32187" lon="-0.58167">
        <ele>203.93689</ele>
        <time>2013-09-30T07:27:07Z</time>
      </trkpt>
      <trkpt lat="43.32218" lon="-0.58114">
        <ele>202.014282</ele>
        <time>2013-09-30T07:27:13Z</time>
      </trkpt>
      <trkpt lat="43.32225" lon="-0.58093">
        <ele>201.052856</ele>
        <time>2013-09-30T07:27:15Z</time>
      </trkpt>
      <trkpt lat="43.32227" lon="-0.58053">
        <ele>198.649536</ele>
        <time>2013-09-30T07:27:19Z</time>
      </trkpt>
      <trkpt lat="43.32219" lon="-0.5801">
        <ele>196.246338</ele>
        <time>2013-09-30T07:27:23Z</time>
      </trkpt>
      <trkpt lat="43.32216" lon="-0.57993">
        <ele>195.765625</ele>
        <time>2013-09-30T07:27:26Z</time>
      </trkpt>
      <trkpt lat="43.32221" lon="-0.57974">
        <ele>195.284912</ele>
        <time>2013-09-30T07:27:30Z</time>
      </trkpt>
      <trkpt lat="43.32221" lon="-0.57952">
        <ele>194.804321</ele>
        <time>2013-09-30T07:27:34Z</time>
      </trkpt>
      <trkpt lat="43.32221" lon="-0.57921">
        <ele>192.881714</ele>
        <time>2013-09-30T07:27:39Z</time>
      </trkpt>
      <trkpt lat="43.32244" lon="-0.57895">
        <ele>190.958984</ele>
        <time>2013-09-30T07:27:45Z</time>
      </trkpt>
      <trkpt lat="43.32268" lon="-0.57877">
        <ele>188.075073</ele>
        <time>2013-09-30T07:27:53Z</time>
      </trkpt>
      <trkpt lat="43.3227" lon="-0.57874">
        <ele>188.075073</ele>
        <time>2013-09-30T07:27:58Z</time>
      </trkpt>
      <trkpt lat="43.32286" lon="-0.57875">
        <ele>187.59436</ele>
        <time>2013-09-30T07:28:03Z</time>
      </trkpt>
      <trkpt lat="43.32376" lon="-0.57891">
        <ele>186.633179</ele>
        <time>2013-09-30T07:28:19Z</time>
      </trkpt>
      <trkpt lat="43.32471" lon="-0.57913">
        <ele>186.152466</ele>
        <time>2013-09-30T07:28:35Z</time>
      </trkpt>
      <trkpt lat="43.32477" lon="-0.57915">
        <ele>186.633179</ele>
        <time>2013-09-30T07:28:36Z</time>
      </trkpt>
      <trkpt lat="43.32555" lon="-0.579">
        <ele>185.191162</ele>
        <time>2013-09-30T07:28:48Z</time>
      </trkpt>
      <trkpt lat="43.32595" lon="-0.57918">
        <ele>183.268433</ele>
        <time>2013-09-30T07:28:54Z</time>
      </trkpt>
      <trkpt lat="43.3269" lon="-0.58021">
        <ele>182.307129</ele>
        <time>2013-09-30T07:29:10Z</time>
      </trkpt>
      <trkpt lat="43.32706" lon="-0.5804">
        <ele>182.307129</ele>
        <time>2013-09-30T07:29:13Z</time>
      </trkpt>
      <trkpt lat="43.32769" lon="-0.58066">
        <ele>182.787842</ele>
        <time>2013-09-30T07:29:23Z</time>
      </trkpt>
      <trkpt lat="43.32925" lon="-0.58115">
        <ele>180.865234</ele>
        <time>2013-09-30T07:29:47Z</time>
      </trkpt>
      <trkpt lat="43.33063" lon="-0.58157">
        <ele>179.423218</ele>
        <time>2013-09-30T07:30:07Z</time>
      </trkpt>
      <trkpt lat="43.33187" lon="-0.58199">
        <ele>176.058594</ele>
        <time>2013-09-30T07:30:25Z</time>
      </trkpt>
      <trkpt lat="43.33231" lon="-0.58214">
        <ele>176.058594</ele>
        <time>2013-09-30T07:30:31Z</time>
      </trkpt>
      <trkpt lat="43.33318" lon="-0.58274">
        <ele>173.174683</ele>
        <time>2013-09-30T07:30:44Z</time>
      </trkpt>
      <trkpt lat="43.33413" lon="-0.58326">
        <ele>175.09729</ele>
        <time>2013-09-30T07:31:00Z</time>
      </trkpt>
      <trkpt lat="43.33525" lon="-0.58403">
        <ele>174.135864</ele>
        <time>2013-09-30T07:31:20Z</time>
      </trkpt>
      <trkpt lat="43.33605" lon="-0.5846">
        <ele>172.69397</ele>
        <time>2013-09-30T07:31:34Z</time>
      </trkpt>
      <trkpt lat="43.33619" lon="-0.58466">
        <ele>172.213257</ele>
        <time>2013-09-30T07:31:42Z</time>
      </trkpt>
      <trkpt lat="43.33618" lon="-0.58465">
        <ele>171.252075</ele>
        <time>2013-09-30T07:32:01Z</time>
      </trkpt>
      <trkpt lat="43.33619" lon="-0.58466">
        <ele>170.290649</ele>
        <time>2013-09-30T07:32:16Z</time>
      </trkpt>
      <trkpt lat="43.33643" lon="-0.58494">
        <ele>170.290649</ele>
        <time>2013-09-30T07:32:27Z</time>
      </trkpt>
      <trkpt lat="43.3369" lon="-0.58532">
        <ele>170.771362</ele>
        <time>2013-09-30T07:32:38Z</time>
      </trkpt>
      <trkpt lat="43.33754" lon="-0.58529">
        <ele>168.848755</ele>
        <time>2013-09-30T07:32:48Z</time>
      </trkpt>
      <trkpt lat="43.33873" lon="-0.58481">
        <ele>165.484131</ele>
        <time>2013-09-30T07:33:05Z</time>
      </trkpt>
      <trkpt lat="43.33967" lon="-0.5844">
        <ele>161.638916</ele>
        <time>2013-09-30T07:33:17Z</time>
      </trkpt>
      <trkpt lat="43.34068" lon="-0.58395">
        <ele>158.27417</ele>
        <time>2013-09-30T07:33:30Z</time>
      </trkpt>
      <trkpt lat="43.34195" lon="-0.58342">
        <ele>155.390259</ele>
        <time>2013-09-30T07:33:47Z</time>
      </trkpt>
      <trkpt lat="43.34367" lon="-0.58288">
        <ele>152.986938</ele>
        <time>2013-09-30T07:34:11Z</time>
      </trkpt>
      <trkpt lat="43.34498" lon="-0.58282">
        <ele>152.025757</ele>
        <time>2013-09-30T07:34:31Z</time>
      </trkpt>
      <trkpt lat="43.34579" lon="-0.58279">
        <ele>151.064209</ele>
        <time>2013-09-30T07:34:44Z</time>
      </trkpt>
      <trkpt lat="43.34616" lon="-0.58278">
        <ele>150.583618</ele>
        <time>2013-09-30T07:34:50Z</time>
      </trkpt>
      <trkpt lat="43.34721" lon="-0.58275">
        <ele>150.103027</ele>
        <time>2013-09-30T07:35:07Z</time>
      </trkpt>
      <trkpt lat="43.34838" lon="-0.58268">
        <ele>148.661011</ele>
        <time>2013-09-30T07:35:26Z</time>
      </trkpt>
      <trkpt lat="43.34968" lon="-0.58268">
        <ele>148.661011</ele>
        <time>2013-09-30T07:35:47Z</time>
      </trkpt>
      <trkpt lat="43.3512" lon="-0.58268">
        <ele>147.218994</ele>
        <time>2013-09-30T07:36:11Z</time>
      </trkpt>
      <trkpt lat="43.35274" lon="-0.5827">
        <ele>146.257813</ele>
        <time>2013-09-30T07:36:35Z</time>
      </trkpt>
      <trkpt lat="43.35423" lon="-0.5827">
        <ele>146.738403</ele>
        <time>2013-09-30T07:36:59Z</time>
      </trkpt>
      <trkpt lat="43.35564" lon="-0.5827">
        <ele>146.257813</ele>
        <time>2013-09-30T07:37:22Z</time>
      </trkpt>
      <trkpt lat="43.35639" lon="-0.58269">
        <ele>146.257813</ele>
        <time>2013-09-30T07:37:35Z</time>
      </trkpt>
      <trkpt lat="43.35655" lon="-0.5826">
        <ele>144.815796</ele>
        <time>2013-09-30T07:37:38Z</time>
      </trkpt>
      <trkpt lat="43.35656" lon="-0.58236">
        <ele>145.296387</ele>
        <time>2013-09-30T07:37:41Z</time>
      </trkpt>
      <trkpt lat="43.35651" lon="-0.58195">
        <ele>145.296387</ele>
        <time>2013-09-30T07:37:46Z</time>
      </trkpt>
      <trkpt lat="43.35655" lon="-0.58163">
        <ele>145.296387</ele>
        <time>2013-09-30T07:37:50Z</time>
      </trkpt>
      <trkpt lat="43.35711" lon="-0.57957">
        <ele>144.815796</ele>
        <time>2013-09-30T07:38:18Z</time>
      </trkpt>
      <trkpt lat="43.35772" lon="-0.57742">
        <ele>144.335205</ele>
        <time>2013-09-30T07:38:47Z</time>
      </trkpt>
      <trkpt lat="43.35826" lon="-0.57543">
        <ele>143.85437</ele>
        <time>2013-09-30T07:39:13Z</time>
      </trkpt>
      <trkpt lat="43.35859" lon="-0.57426">
        <ele>144.335205</ele>
        <time>2013-09-30T07:39:28Z</time>
      </trkpt>
      <trkpt lat="43.35888" lon="-0.57321">
        <ele>144.335205</ele>
        <time>2013-09-30T07:39:42Z</time>
      </trkpt>
      <trkpt lat="43.35921" lon="-0.57195">
        <ele>144.335205</ele>
        <time>2013-09-30T07:39:59Z</time>
      </trkpt>
      <trkpt lat="43.35906" lon="-0.57068">
        <ele>144.335205</ele>
        <time>2013-09-30T07:40:15Z</time>
      </trkpt>
      <trkpt lat="43.35871" lon="-0.56848">
        <ele>145.296387</ele>
        <time>2013-09-30T07:40:43Z</time>
      </trkpt>
      <trkpt lat="43.35844" lon="-0.56671">
        <ele>145.7771</ele>
        <time>2013-09-30T07:41:06Z</time>
      </trkpt>
      <trkpt lat="43.35832" lon="-0.56554">
        <ele>144.815796</ele>
        <time>2013-09-30T07:41:21Z</time>
      </trkpt>
      <trkpt lat="43.35823" lon="-0.56515">
        <ele>145.296387</ele>
        <time>2013-09-30T07:41:26Z</time>
      </trkpt>
      <trkpt lat="43.35822" lon="-0.56483">
        <ele>145.296387</ele>
        <time>2013-09-30T07:41:30Z</time>
      </trkpt>
      <trkpt lat="43.35824" lon="-0.56376">
        <ele>145.296387</ele>
        <time>2013-09-30T07:41:43Z</time>
      </trkpt>
      <trkpt lat="43.35826" lon="-0.56314">
        <ele>145.7771</ele>
        <time>2013-09-30T07:41:51Z</time>
      </trkpt>
      <trkpt lat="43.35846" lon="-0.56235">
        <ele>146.257813</ele>
        <time>2013-09-30T07:42:02Z</time>
      </trkpt>
      <trkpt lat="43.35843" lon="-0.56198">
        <ele>145.7771</ele>
        <time>2013-09-30T07:42:07Z</time>
      </trkpt>
      <trkpt lat="43.35824" lon="-0.56099">
        <ele>146.738403</ele>
        <time>2013-09-30T07:42:20Z</time>
      </trkpt>
      <trkpt lat="43.35847" lon="-0.55955">
        <ele>146.738403</ele>
        <time>2013-09-30T07:42:39Z</time>
      </trkpt>
      <trkpt lat="43.35882" lon="-0.55761">
        <ele>146.257813</ele>
        <time>2013-09-30T07:43:05Z</time>
      </trkpt>
      <trkpt lat="43.35914" lon="-0.55573">
        <ele>146.257813</ele>
        <time>2013-09-30T07:43:30Z</time>
      </trkpt>
      <trkpt lat="43.35938" lon="-0.55445">
        <ele>146.257813</ele>
        <time>2013-09-30T07:43:48Z</time>
      </trkpt>
      <trkpt lat="43.35933" lon="-0.55388">
        <ele>145.7771</ele>
        <time>2013-09-30T07:43:56Z</time>
      </trkpt>
      <trkpt lat="43.35936" lon="-0.55358">
        <ele>145.7771</ele>
        <time>2013-09-30T07:44:01Z</time>
      </trkpt>
      <trkpt lat="43.35939" lon="-0.5533">
        <ele>145.7771</ele>
        <time>2013-09-30T07:44:07Z</time>
      </trkpt>
      <trkpt lat="43.3597" lon="-0.5529">
        <ele>146.257813</ele>
        <time>2013-09-30T07:44:16Z</time>
      </trkpt>
      <trkpt lat="43.36001" lon="-0.55265">
        <ele>145.296387</ele>
        <time>2013-09-30T07:44:24Z</time>
      </trkpt>
      <trkpt lat="43.35991" lon="-0.5523">
        <ele>145.7771</ele>
        <time>2013-09-30T07:44:29Z</time>
      </trkpt>
      <trkpt lat="43.35987" lon="-0.55217">
        <ele>145.296387</ele>
        <time>2013-09-30T07:44:31Z</time>
      </trkpt>
      <trkpt lat="43.35983" lon="-0.55189">
        <ele>145.7771</ele>
        <time>2013-09-30T07:44:35Z</time>
      </trkpt>
      <trkpt lat="43.3599" lon="-0.54998">
        <ele>145.7771</ele>
        <time>2013-09-30T07:45:01Z</time>
      </trkpt>
      <trkpt lat="43.35999" lon="-0.54805">
        <ele>145.296387</ele>
        <time>2013-09-30T07:45:27Z</time>
      </trkpt>
      <trkpt lat="43.36009" lon="-0.54568">
        <ele>146.257813</ele>
        <time>2013-09-30T07:45:58Z</time>
      </trkpt>
      <trkpt lat="43.36016" lon="-0.54408">
        <ele>145.296387</ele>
        <time>2013-09-30T07:46:17Z</time>
      </trkpt>
      <trkpt lat="43.3602" lon="-0.54274">
        <ele>144.815796</ele>
        <time>2013-09-30T07:46:33Z</time>
      </trkpt>
      <trkpt lat="43.36009" lon="-0.54236">
        <ele>143.85437</ele>
        <time>2013-09-30T07:46:38Z</time>
      </trkpt>
      <trkpt lat="43.35995" lon="-0.54208">
        <ele>143.85437</ele>
        <time>2013-09-30T07:46:42Z</time>
      </trkpt>
      <trkpt lat="43.3593" lon="-0.54141">
        <ele>143.373657</ele>
        <time>2013-09-30T07:46:56Z</time>
      </trkpt>
      <trkpt lat="43.35909" lon="-0.54122">
        <ele>143.85437</ele>
        <time>2013-09-30T07:47:01Z</time>
      </trkpt>
      <trkpt lat="43.35893" lon="-0.54093">
        <ele>143.373657</ele>
        <time>2013-09-30T07:47:06Z</time>
      </trkpt>
      <trkpt lat="43.35871" lon="-0.53985">
        <ele>143.85437</ele>
        <time>2013-09-30T07:47:21Z</time>
      </trkpt>
      <trkpt lat="43.3585" lon="-0.53925">
        <ele>143.85437</ele>
        <time>2013-09-30T07:47:30Z</time>
      </trkpt>
      <trkpt lat="43.35832" lon="-0.53898">
        <ele>143.85437</ele>
        <time>2013-09-30T07:47:35Z</time>
      </trkpt>
      <trkpt lat="43.35805" lon="-0.53865">
        <ele>144.335205</ele>
        <time>2013-09-30T07:47:42Z</time>
      </trkpt>
      <trkpt lat="43.3574" lon="-0.53763">
        <ele>143.85437</ele>
        <time>2013-09-30T07:48:00Z</time>
      </trkpt>
      <trkpt lat="43.35719" lon="-0.53724">
        <ele>143.85437</ele>
        <time>2013-09-30T07:48:06Z</time>
      </trkpt>
      <trkpt lat="43.35712" lon="-0.53694">
        <ele>143.85437</ele>
        <time>2013-09-30T07:48:10Z</time>
      </trkpt>
      <trkpt lat="43.35701" lon="-0.53567">
        <ele>143.85437</ele>
        <time>2013-09-30T07:48:27Z</time>
      </trkpt>
      <trkpt lat="43.35697" lon="-0.53523">
        <ele>144.335205</ele>
        <time>2013-09-30T07:48:33Z</time>
      </trkpt>
      <trkpt lat="43.35655" lon="-0.53426">
        <ele>144.335205</ele>
        <time>2013-09-30T07:48:48Z</time>
      </trkpt>
      <trkpt lat="43.35574" lon="-0.5327">
        <ele>144.335205</ele>
        <time>2013-09-30T07:49:13Z</time>
      </trkpt>
      <trkpt lat="43.35546" lon="-0.53147">
        <ele>144.815796</ele>
        <time>2013-09-30T07:49:30Z</time>
      </trkpt>
      <trkpt lat="43.35513" lon="-0.53024">
        <ele>144.815796</ele>
        <time>2013-09-30T07:49:48Z</time>
      </trkpt>
      <trkpt lat="43.3551" lon="-0.53018">
        <ele>144.815796</ele>
        <time>2013-09-30T07:49:49Z</time>
      </trkpt>
      <trkpt lat="43.35504" lon="-0.52992">
        <ele>144.335205</ele>
        <time>2013-09-30T07:49:53Z</time>
      </trkpt>
      <trkpt lat="43.35507" lon="-0.5283">
        <ele>144.335205</ele>
        <time>2013-09-30T07:50:15Z</time>
      </trkpt>
      <trkpt lat="43.35491" lon="-0.52692">
        <ele>144.815796</ele>
        <time>2013-09-30T07:50:34Z</time>
      </trkpt>
      <trkpt lat="43.3547" lon="-0.52557">
        <ele>145.296387</ele>
        <time>2013-09-30T07:50:53Z</time>
      </trkpt>
      <trkpt lat="43.35466" lon="-0.52396">
        <ele>144.335205</ele>
        <time>2013-09-30T07:51:15Z</time>
      </trkpt>
      <trkpt lat="43.35496" lon="-0.52273">
        <ele>145.7771</ele>
        <time>2013-09-30T07:51:33Z</time>
      </trkpt>
      <trkpt lat="43.35546" lon="-0.52189">
        <ele>144.815796</ele>
        <time>2013-09-30T07:51:47Z</time>
      </trkpt>
      <trkpt lat="43.35576" lon="-0.52184">
        <ele>143.85437</ele>
        <time>2013-09-30T07:51:52Z</time>
      </trkpt>
      <trkpt lat="43.35594" lon="-0.52193">
        <ele>143.373657</ele>
        <time>2013-09-30T07:51:55Z</time>
      </trkpt>
      <trkpt lat="43.35639" lon="-0.52174">
        <ele>143.85437</ele>
        <time>2013-09-30T07:52:04Z</time>
      </trkpt>
      <trkpt lat="43.35643" lon="-0.5216">
        <ele>143.85437</ele>
        <time>2013-09-30T07:52:06Z</time>
      </trkpt>
      <trkpt lat="43.35648" lon="-0.52107">
        <ele>144.335205</ele>
        <time>2013-09-30T07:52:13Z</time>
      </trkpt>
      <trkpt lat="43.35639" lon="-0.52072">
        <ele>144.335205</ele>
        <time>2013-09-30T07:52:18Z</time>
      </trkpt>
      <trkpt lat="43.35567" lon="-0.51924">
        <ele>144.815796</ele>
        <time>2013-09-30T07:52:41Z</time>
      </trkpt>
      <trkpt lat="43.35519" lon="-0.5187">
        <ele>144.815796</ele>
        <time>2013-09-30T07:52:53Z</time>
      </trkpt>
      <trkpt lat="43.3546" lon="-0.51789">
        <ele>145.7771</ele>
        <time>2013-09-30T07:53:08Z</time>
      </trkpt>
      <trkpt lat="43.35437" lon="-0.51746">
        <ele>145.7771</ele>
        <time>2013-09-30T07:53:15Z</time>
      </trkpt>
      <trkpt lat="43.35428" lon="-0.51681">
        <ele>147.218994</ele>
        <time>2013-09-30T07:53:25Z</time>
      </trkpt>
      <trkpt lat="43.35362" lon="-0.51627">
        <ele>146.738403</ele>
        <time>2013-09-30T07:53:38Z</time>
      </trkpt>
      <trkpt lat="43.35327" lon="-0.51607">
        <ele>146.257813</ele>
        <time>2013-09-30T07:53:44Z</time>
      </trkpt>
      <trkpt lat="43.35255" lon="-0.51524">
        <ele>145.7771</ele>
        <time>2013-09-30T07:53:59Z</time>
      </trkpt>
      <trkpt lat="43.35237" lon="-0.51501">
        <ele>145.7771</ele>
        <time>2013-09-30T07:54:03Z</time>
      </trkpt>
      <trkpt lat="43.35202" lon="-0.51508">
        <ele>145.7771</ele>
        <time>2013-09-30T07:54:10Z</time>
      </trkpt>
      <trkpt lat="43.35197" lon="-0.51511">
        <ele>145.7771</ele>
        <time>2013-09-30T07:54:11Z</time>
      </trkpt>
      <trkpt lat="43.35177" lon="-0.51514">
        <ele>146.738403</ele>
        <time>2013-09-30T07:54:15Z</time>
      </trkpt>
      <trkpt lat="43.35157" lon="-0.51514">
        <ele>146.257813</ele>
        <time>2013-09-30T07:54:19Z</time>
      </trkpt>
      <trkpt lat="43.35145" lon="-0.51513">
        <ele>146.738403</ele>
        <time>2013-09-30T07:54:21Z</time>
      </trkpt>
      <trkpt lat="43.35105" lon="-0.51497">
        <ele>146.738403</ele>
        <time>2013-09-30T07:54:29Z</time>
      </trkpt>
      <trkpt lat="43.35085" lon="-0.51471">
        <ele>146.738403</ele>
        <time>2013-09-30T07:54:34Z</time>
      </trkpt>
      <trkpt lat="43.35071" lon="-0.51442">
        <ele>146.738403</ele>
        <time>2013-09-30T07:54:39Z</time>
      </trkpt>
      <trkpt lat="43.35066" lon="-0.51414">
        <ele>146.738403</ele>
        <time>2013-09-30T07:54:43Z</time>
      </trkpt>
      <trkpt lat="43.35038" lon="-0.51404">
        <ele>146.738403</ele>
        <time>2013-09-30T07:54:49Z</time>
      </trkpt>
      <trkpt lat="43.35023" lon="-0.51418">
        <ele>146.257813</ele>
        <time>2013-09-30T07:54:52Z</time>
      </trkpt>
      <trkpt lat="43.34989" lon="-0.51418">
        <ele>146.738403</ele>
        <time>2013-09-30T07:54:58Z</time>
      </trkpt>
      <trkpt lat="43.34901" lon="-0.51358">
        <ele>147.218994</ele>
        <time>2013-09-30T07:55:13Z</time>
      </trkpt>
      <trkpt lat="43.3482" lon="-0.51299">
        <ele>146.738403</ele>
        <time>2013-09-30T07:55:27Z</time>
      </trkpt>
      <trkpt lat="43.34789" lon="-0.51289">
        <ele>146.738403</ele>
        <time>2013-09-30T07:55:33Z</time>
      </trkpt>
      <trkpt lat="43.34739" lon="-0.51267">
        <ele>146.738403</ele>
        <time>2013-09-30T07:55:43Z</time>
      </trkpt>
      <trkpt lat="43.34704" lon="-0.51258">
        <ele>146.738403</ele>
        <time>2013-09-30T07:55:50Z</time>
      </trkpt>
      <trkpt lat="43.34697" lon="-0.51228">
        <ele>147.218994</ele>
        <time>2013-09-30T07:55:55Z</time>
      </trkpt>
      <trkpt lat="43.34732" lon="-0.51118">
        <ele>147.699707</ele>
        <time>2013-09-30T07:56:08Z</time>
      </trkpt>
      <trkpt lat="43.34736" lon="-0.51089">
        <ele>147.699707</ele>
        <time>2013-09-30T07:56:11Z</time>
      </trkpt>
      <trkpt lat="43.34747" lon="-0.51055">
        <ele>147.699707</ele>
        <time>2013-09-30T07:56:15Z</time>
      </trkpt>
      <trkpt lat="43.34743" lon="-0.51001">
        <ele>147.699707</ele>
        <time>2013-09-30T07:56:21Z</time>
      </trkpt>
      <trkpt lat="43.34734" lon="-0.50988">
        <ele>147.218994</ele>
        <time>2013-09-30T07:56:23Z</time>
      </trkpt>
      <trkpt lat="43.34723" lon="-0.50965">
        <ele>147.218994</ele>
        <time>2013-09-30T07:56:26Z</time>
      </trkpt>
      <trkpt lat="43.34702" lon="-0.50929">
        <ele>147.699707</ele>
        <time>2013-09-30T07:56:31Z</time>
      </trkpt>
      <trkpt lat="43.34662" lon="-0.50854">
        <ele>147.218994</ele>
        <time>2013-09-30T07:56:43Z</time>
      </trkpt>
      <trkpt lat="43.34617" lon="-0.50793">
        <ele>147.699707</ele>
        <time>2013-09-30T07:56:55Z</time>
      </trkpt>
      <trkpt lat="43.34614" lon="-0.50786">
        <ele>147.699707</ele>
        <time>2013-09-30T07:56:56Z</time>
      </trkpt>
      <trkpt lat="43.34605" lon="-0.50759">
        <ele>147.218994</ele>
        <time>2013-09-30T07:57:00Z</time>
      </trkpt>
      <trkpt lat="43.34556" lon="-0.50692">
        <ele>148.661011</ele>
        <time>2013-09-30T07:57:11Z</time>
      </trkpt>
      <trkpt lat="43.34488" lon="-0.50601">
        <ele>149.141602</ele>
        <time>2013-09-30T07:57:25Z</time>
      </trkpt>
      <trkpt lat="43.34433" lon="-0.50551">
        <ele>148.661011</ele>
        <time>2013-09-30T07:57:35Z</time>
      </trkpt>
      <trkpt lat="43.34404" lon="-0.50513">
        <ele>148.661011</ele>
        <time>2013-09-30T07:57:42Z</time>
      </trkpt>
      <trkpt lat="43.34346" lon="-0.50488">
        <ele>148.661011</ele>
        <time>2013-09-30T07:57:53Z</time>
      </trkpt>
      <trkpt lat="43.34316" lon="-0.50456">
        <ele>149.141602</ele>
        <time>2013-09-30T07:58:00Z</time>
      </trkpt>
      <trkpt lat="43.34253" lon="-0.50381">
        <ele>149.622314</ele>
        <time>2013-09-30T07:58:13Z</time>
      </trkpt>
      <trkpt lat="43.34166" lon="-0.50321">
        <ele>150.103027</ele>
        <time>2013-09-30T07:58:28Z</time>
      </trkpt>
      <trkpt lat="43.34113" lon="-0.50258">
        <ele>150.103027</ele>
        <time>2013-09-30T07:58:39Z</time>
      </trkpt>
      <trkpt lat="43.34048" lon="-0.50176">
        <ele>148.661011</ele>
        <time>2013-09-30T07:58:54Z</time>
      </trkpt>
      <trkpt lat="43.3401" lon="-0.50135">
        <ele>148.661011</ele>
        <time>2013-09-30T07:59:02Z</time>
      </trkpt>
      <trkpt lat="43.33974" lon="-0.50031">
        <ele>149.141602</ele>
        <time>2013-09-30T07:59:14Z</time>
      </trkpt>
      <trkpt lat="43.33956" lon="-0.49959">
        <ele>149.622314</ele>
        <time>2013-09-30T07:59:22Z</time>
      </trkpt>
      <trkpt lat="43.33932" lon="-0.49915">
        <ele>150.583618</ele>
        <time>2013-09-30T07:59:28Z</time>
      </trkpt>
      <trkpt lat="43.3391" lon="-0.4989">
        <ele>151.064209</ele>
        <time>2013-09-30T07:59:33Z</time>
      </trkpt>
      <trkpt lat="43.33895" lon="-0.49863">
        <ele>151.064209</ele>
        <time>2013-09-30T07:59:37Z</time>
      </trkpt>
      <trkpt lat="43.33884" lon="-0.49834">
        <ele>150.103027</ele>
        <time>2013-09-30T07:59:41Z</time>
      </trkpt>
      <trkpt lat="43.33869" lon="-0.4981">
        <ele>150.103027</ele>
        <time>2013-09-30T07:59:45Z</time>
      </trkpt>
      <trkpt lat="43.33875" lon="-0.49782">
        <ele>150.583618</ele>
        <time>2013-09-30T07:59:52Z</time>
      </trkpt>
      <trkpt lat="43.33874" lon="-0.49775">
        <ele>150.103027</ele>
        <time>2013-09-30T07:59:54Z</time>
      </trkpt>
      <trkpt lat="43.33843" lon="-0.49685">
        <ele>150.103027</ele>
        <time>2013-09-30T08:00:07Z</time>
      </trkpt>
      <trkpt lat="43.33832" lon="-0.49652">
        <ele>150.103027</ele>
        <time>2013-09-30T08:00:11Z</time>
      </trkpt>
      <trkpt lat="43.33829" lon="-0.49635">
        <ele>150.583618</ele>
        <time>2013-09-30T08:00:13Z</time>
      </trkpt>
      <trkpt lat="43.33828" lon="-0.49617">
        <ele>150.583618</ele>
        <time>2013-09-30T08:00:15Z</time>
      </trkpt>
      <trkpt lat="43.33823" lon="-0.49582">
        <ele>150.103027</ele>
        <time>2013-09-30T08:00:19Z</time>
      </trkpt>
      <trkpt lat="43.33806" lon="-0.49541">
        <ele>150.103027</ele>
        <time>2013-09-30T08:00:24Z</time>
      </trkpt>
      <trkpt lat="43.33774" lon="-0.49471">
        <ele>150.583618</ele>
        <time>2013-09-30T08:00:33Z</time>
      </trkpt>
      <trkpt lat="43.33748" lon="-0.49457">
        <ele>150.583618</ele>
        <time>2013-09-30T08:00:38Z</time>
      </trkpt>
      <trkpt lat="43.33723" lon="-0.4943">
        <ele>150.583618</ele>
        <time>2013-09-30T08:00:44Z</time>
      </trkpt>
      <trkpt lat="43.33701" lon="-0.49336">
        <ele>150.583618</ele>
        <time>2013-09-30T08:00:58Z</time>
      </trkpt>
      <trkpt lat="43.33682" lon="-0.49303">
        <ele>150.583618</ele>
        <time>2013-09-30T08:01:04Z</time>
      </trkpt>
      <trkpt lat="43.3366" lon="-0.49288">
        <ele>151.064209</ele>
        <time>2013-09-30T08:01:09Z</time>
      </trkpt>
      <trkpt lat="43.33645" lon="-0.49282">
        <ele>150.583618</ele>
        <time>2013-09-30T08:01:12Z</time>
      </trkpt>
      <trkpt lat="43.33627" lon="-0.49249">
        <ele>151.064209</ele>
        <time>2013-09-30T08:01:18Z</time>
      </trkpt>
      <trkpt lat="43.3362" lon="-0.492">
        <ele>151.064209</ele>
        <time>2013-09-30T08:01:25Z</time>
      </trkpt>
      <trkpt lat="43.33608" lon="-0.49178">
        <ele>150.103027</ele>
        <time>2013-09-30T08:01:29Z</time>
      </trkpt>
      <trkpt lat="43.33537" lon="-0.49076">
        <ele>151.544922</ele>
        <time>2013-09-30T08:01:48Z</time>
      </trkpt>
      <trkpt lat="43.33495" lon="-0.4898">
        <ele>151.544922</ele>
        <time>2013-09-30T08:02:03Z</time>
      </trkpt>
      <trkpt lat="43.33458" lon="-0.48857">
        <ele>152.506348</ele>
        <time>2013-09-30T08:02:20Z</time>
      </trkpt>
      <trkpt lat="43.33451" lon="-0.48827">
        <ele>152.506348</ele>
        <time>2013-09-30T08:02:24Z</time>
      </trkpt>
      <trkpt lat="43.33427" lon="-0.48818">
        <ele>152.986938</ele>
        <time>2013-09-30T08:02:30Z</time>
      </trkpt>
      <trkpt lat="43.33383" lon="-0.4885">
        <ele>153.467651</ele>
        <time>2013-09-30T08:02:40Z</time>
      </trkpt>
      <trkpt lat="43.33357" lon="-0.48847">
        <ele>153.467651</ele>
        <time>2013-09-30T08:02:45Z</time>
      </trkpt>
      <trkpt lat="43.33317" lon="-0.48803">
        <ele>153.467651</ele>
        <time>2013-09-30T08:02:54Z</time>
      </trkpt>
      <trkpt lat="43.33304" lon="-0.48776">
        <ele>152.986938</ele>
        <time>2013-09-30T08:02:58Z</time>
      </trkpt>
      <trkpt lat="43.333" lon="-0.48761">
        <ele>152.506348</ele>
        <time>2013-09-30T08:03:00Z</time>
      </trkpt>
      <trkpt lat="43.33255" lon="-0.48697">
        <ele>152.506348</ele>
        <time>2013-09-30T08:03:12Z</time>
      </trkpt>
      <trkpt lat="43.33231" lon="-0.48664">
        <ele>151.544922</ele>
        <time>2013-09-30T08:03:18Z</time>
      </trkpt>
      <trkpt lat="43.33197" lon="-0.48603">
        <ele>151.544922</ele>
        <time>2013-09-30T08:03:28Z</time>
      </trkpt>
      <trkpt lat="43.33189" lon="-0.48582">
        <ele>152.986938</ele>
        <time>2013-09-30T08:03:31Z</time>
      </trkpt>
      <trkpt lat="43.33188" lon="-0.48553">
        <ele>152.986938</ele>
        <time>2013-09-30T08:03:35Z</time>
      </trkpt>
      <trkpt lat="43.33195" lon="-0.48494">
        <ele>152.025757</ele>
        <time>2013-09-30T08:03:43Z</time>
      </trkpt>
      <trkpt lat="43.33182" lon="-0.48447">
        <ele>152.506348</ele>
        <time>2013-09-30T08:03:50Z</time>
      </trkpt>
      <trkpt lat="43.33173" lon="-0.48439">
        <ele>153.467651</ele>
        <time>2013-09-30T08:03:52Z</time>
      </trkpt>
      <trkpt lat="43.3314" lon="-0.48425">
        <ele>153.467651</ele>
        <time>2013-09-30T08:03:59Z</time>
      </trkpt>
      <trkpt lat="43.3312" lon="-0.48413">
        <ele>153.467651</ele>
        <time>2013-09-30T08:04:03Z</time>
      </trkpt>
      <trkpt lat="43.33109" lon="-0.484">
        <ele>153.467651</ele>
        <time>2013-09-30T08:04:06Z</time>
      </trkpt>
      <trkpt lat="43.331" lon="-0.48374">
        <ele>153.467651</ele>
        <time>2013-09-30T08:04:10Z</time>
      </trkpt>
      <trkpt lat="43.3306" lon="-0.48293">
        <ele>153.948364</ele>
        <time>2013-09-30T08:04:23Z</time>
      </trkpt>
      <trkpt lat="43.33056" lon="-0.48282">
        <ele>153.948364</ele>
        <time>2013-09-30T08:04:25Z</time>
      </trkpt>
      <trkpt lat="43.3305" lon="-0.4826">
        <ele>153.948364</ele>
        <time>2013-09-30T08:04:29Z</time>
      </trkpt>
      <trkpt lat="43.33052" lon="-0.48236">
        <ele>153.948364</ele>
        <time>2013-09-30T08:04:33Z</time>
      </trkpt>
      <trkpt lat="43.33059" lon="-0.48194">
        <ele>153.948364</ele>
        <time>2013-09-30T08:04:39Z</time>
      </trkpt>
      <trkpt lat="43.33044" lon="-0.481">
        <ele>154.428955</ele>
        <time>2013-09-30T08:04:52Z</time>
      </trkpt>
      <trkpt lat="43.33004" lon="-0.48014">
        <ele>153.467651</ele>
        <time>2013-09-30T08:05:05Z</time>
      </trkpt>
      <trkpt lat="43.32986" lon="-0.47945">
        <ele>154.428955</ele>
        <time>2013-09-30T08:05:15Z</time>
      </trkpt>
      <trkpt lat="43.32929" lon="-0.47819">
        <ele>154.428955</ele>
        <time>2013-09-30T08:05:34Z</time>
      </trkpt>
      <trkpt lat="43.32881" lon="-0.47699">
        <ele>154.428955</ele>
        <time>2013-09-30T08:05:51Z</time>
      </trkpt>
      <trkpt lat="43.3284" lon="-0.47588">
        <ele>155.390259</ele>
        <time>2013-09-30T08:06:07Z</time>
      </trkpt>
      <trkpt lat="43.32832" lon="-0.47567">
        <ele>155.390259</ele>
        <time>2013-09-30T08:06:10Z</time>
      </trkpt>
      <trkpt lat="43.3284" lon="-0.47529">
        <ele>154.909546</ele>
        <time>2013-09-30T08:06:16Z</time>
      </trkpt>
      <trkpt lat="43.32858" lon="-0.47518">
        <ele>156.351563</ele>
        <time>2013-09-30T08:06:20Z</time>
      </trkpt>
      <trkpt lat="43.32865" lon="-0.4749">
        <ele>155.870972</ele>
        <time>2013-09-30T08:06:26Z</time>
      </trkpt>
      <trkpt lat="43.32835" lon="-0.47397">
        <ele>154.909546</ele>
        <time>2013-09-30T08:06:39Z</time>
      </trkpt>
      <trkpt lat="43.32813" lon="-0.47225">
        <ele>156.351563</ele>
        <time>2013-09-30T08:07:02Z</time>
      </trkpt>
      <trkpt lat="43.32815" lon="-0.47123">
        <ele>156.832153</ele>
        <time>2013-09-30T08:07:13Z</time>
      </trkpt>
      <trkpt lat="43.32809" lon="-0.47071">
        <ele>157.793579</ele>
        <time>2013-09-30T08:07:19Z</time>
      </trkpt>
      <trkpt lat="43.32815" lon="-0.47026">
        <ele>157.793579</ele>
        <time>2013-09-30T08:07:24Z</time>
      </trkpt>
      <trkpt lat="43.32868" lon="-0.46908">
        <ele>156.832153</ele>
        <time>2013-09-30T08:07:39Z</time>
      </trkpt>
      <trkpt lat="43.32901" lon="-0.46862">
        <ele>156.832153</ele>
        <time>2013-09-30T08:07:47Z</time>
      </trkpt>
      <trkpt lat="43.32968" lon="-0.46793">
        <ele>157.312866</ele>
        <time>2013-09-30T08:08:02Z</time>
      </trkpt>
      <trkpt lat="43.33042" lon="-0.46715">
        <ele>157.793579</ele>
        <time>2013-09-30T08:08:15Z</time>
      </trkpt>
      <trkpt lat="43.33049" lon="-0.46709">
        <ele>157.793579</ele>
        <time>2013-09-30T08:08:16Z</time>
      </trkpt>
      <trkpt lat="43.3307" lon="-0.46669">
        <ele>156.832153</ele>
        <time>2013-09-30T08:08:21Z</time>
      </trkpt>
      <trkpt lat="43.33116" lon="-0.46601">
        <ele>157.312866</ele>
        <time>2013-09-30T08:08:31Z</time>
      </trkpt>
      <trkpt lat="43.33104" lon="-0.46544">
        <ele>156.351563</ele>
        <time>2013-09-30T08:08:38Z</time>
      </trkpt>
      <trkpt lat="43.33067" lon="-0.46483">
        <ele>157.793579</ele>
        <time>2013-09-30T08:08:49Z</time>
      </trkpt>
      <trkpt lat="43.33024" lon="-0.46444">
        <ele>157.312866</ele>
        <time>2013-09-30T08:08:59Z</time>
      </trkpt>
      <trkpt lat="43.33003" lon="-0.46437">
        <ele>158.27417</ele>
        <time>2013-09-30T08:09:03Z</time>
      </trkpt>
      <trkpt lat="43.32983" lon="-0.46421">
        <ele>157.793579</ele>
        <time>2013-09-30T08:09:07Z</time>
      </trkpt>
      <trkpt lat="43.32973" lon="-0.46409">
        <ele>157.793579</ele>
        <time>2013-09-30T08:09:09Z</time>
      </trkpt>
      <trkpt lat="43.32893" lon="-0.46325">
        <ele>158.27417</ele>
        <time>2013-09-30T08:09:24Z</time>
      </trkpt>
      <trkpt lat="43.32818" lon="-0.46227">
        <ele>158.27417</ele>
        <time>2013-09-30T08:09:40Z</time>
      </trkpt>
      <trkpt lat="43.32761" lon="-0.46133">
        <ele>157.793579</ele>
        <time>2013-09-30T08:09:56Z</time>
      </trkpt>
      <trkpt lat="43.32695" lon="-0.46027">
        <ele>157.793579</ele>
        <time>2013-09-30T08:10:11Z</time>
      </trkpt>
      <trkpt lat="43.32617" lon="-0.45942">
        <ele>158.754761</ele>
        <time>2013-09-30T08:10:25Z</time>
      </trkpt>
      <trkpt lat="43.32526" lon="-0.45847">
        <ele>158.27417</ele>
        <time>2013-09-30T08:10:42Z</time>
      </trkpt>
      <trkpt lat="43.32484" lon="-0.45805">
        <ele>158.27417</ele>
        <time>2013-09-30T08:10:51Z</time>
      </trkpt>
      <trkpt lat="43.32431" lon="-0.4574">
        <ele>158.27417</ele>
        <time>2013-09-30T08:11:04Z</time>
      </trkpt>
      <trkpt lat="43.32343" lon="-0.45686">
        <ele>159.716187</ele>
        <time>2013-09-30T08:11:18Z</time>
      </trkpt>
      <trkpt lat="43.32251" lon="-0.45617">
        <ele>160.67749</ele>
        <time>2013-09-30T08:11:33Z</time>
      </trkpt>
      <trkpt lat="43.3217" lon="-0.45563">
        <ele>159.716187</ele>
        <time>2013-09-30T08:11:49Z</time>
      </trkpt>
      <trkpt lat="43.32077" lon="-0.45521">
        <ele>160.67749</ele>
        <time>2013-09-30T08:12:06Z</time>
      </trkpt>
      <trkpt lat="43.31981" lon="-0.45467">
        <ele>160.196899</ele>
        <time>2013-09-30T08:12:21Z</time>
      </trkpt>
      <trkpt lat="43.31954" lon="-0.45453">
        <ele>161.158203</ele>
        <time>2013-09-30T08:12:25Z</time>
      </trkpt>
      <trkpt lat="43.31899" lon="-0.45407">
        <ele>160.196899</ele>
        <time>2013-09-30T08:12:34Z</time>
      </trkpt>
      <trkpt lat="43.31863" lon="-0.45354">
        <ele>159.716187</ele>
        <time>2013-09-30T08:12:42Z</time>
      </trkpt>
      <trkpt lat="43.31843" lon="-0.4534">
        <ele>159.235474</ele>
        <time>2013-09-30T08:12:46Z</time>
      </trkpt>
      <trkpt lat="43.31809" lon="-0.45293">
        <ele>159.235474</ele>
        <time>2013-09-30T08:12:55Z</time>
      </trkpt>
      <trkpt lat="43.31805" lon="-0.45272">
        <ele>159.716187</ele>
        <time>2013-09-30T08:12:58Z</time>
      </trkpt>
      <trkpt lat="43.31804" lon="-0.45245">
        <ele>160.196899</ele>
        <time>2013-09-30T08:13:02Z</time>
      </trkpt>
      <trkpt lat="43.3178" lon="-0.45219">
        <ele>159.235474</ele>
        <time>2013-09-30T08:13:08Z</time>
      </trkpt>
      <trkpt lat="43.31688" lon="-0.45182">
        <ele>160.67749</ele>
        <time>2013-09-30T08:13:26Z</time>
      </trkpt>
      <trkpt lat="43.31605" lon="-0.45193">
        <ele>160.67749</ele>
        <time>2013-09-30T08:13:42Z</time>
      </trkpt>
      <trkpt lat="43.31589" lon="-0.45194">
        <ele>160.67749</ele>
        <time>2013-09-30T08:13:45Z</time>
      </trkpt>
      <trkpt lat="43.31568" lon="-0.45196">
        <ele>160.196899</ele>
        <time>2013-09-30T08:13:49Z</time>
      </trkpt>
      <trkpt lat="43.31548" lon="-0.45188">
        <ele>160.67749</ele>
        <time>2013-09-30T08:13:53Z</time>
      </trkpt>
      <trkpt lat="43.31498" lon="-0.45163">
        <ele>160.196899</ele>
        <time>2013-09-30T08:14:03Z</time>
      </trkpt>
      <trkpt lat="43.31478" lon="-0.4516">
        <ele>161.158203</ele>
        <time>2013-09-30T08:14:07Z</time>
      </trkpt>
      <trkpt lat="43.31458" lon="-0.45152">
        <ele>161.638916</ele>
        <time>2013-09-30T08:14:11Z</time>
      </trkpt>
      <trkpt lat="43.31432" lon="-0.45135">
        <ele>161.158203</ele>
        <time>2013-09-30T08:14:16Z</time>
      </trkpt>
      <trkpt lat="43.31356" lon="-0.45113">
        <ele>160.196899</ele>
        <time>2013-09-30T08:14:29Z</time>
      </trkpt>
      <trkpt lat="43.31271" lon="-0.45062">
        <ele>159.716187</ele>
        <time>2013-09-30T08:14:45Z</time>
      </trkpt>
      <trkpt lat="43.31205" lon="-0.4502">
        <ele>160.196899</ele>
        <time>2013-09-30T08:14:58Z</time>
      </trkpt>
      <trkpt lat="43.31124" lon="-0.44951">
        <ele>160.196899</ele>
        <time>2013-09-30T08:15:14Z</time>
      </trkpt>
      <trkpt lat="43.31029" lon="-0.44883">
        <ele>159.716187</ele>
        <time>2013-09-30T08:15:32Z</time>
      </trkpt>
      <trkpt lat="43.30964" lon="-0.44802">
        <ele>159.716187</ele>
        <time>2013-09-30T08:15:47Z</time>
      </trkpt>
      <trkpt lat="43.30949" lon="-0.44769">
        <ele>160.196899</ele>
        <time>2013-09-30T08:15:52Z</time>
      </trkpt>
      <trkpt lat="43.30905" lon="-0.44733">
        <ele>161.158203</ele>
        <time>2013-09-30T08:16:01Z</time>
      </trkpt>
      <trkpt lat="43.30885" lon="-0.44707">
        <ele>161.158203</ele>
        <time>2013-09-30T08:16:06Z</time>
      </trkpt>
      <trkpt lat="43.30877" lon="-0.44694">
        <ele>161.158203</ele>
        <time>2013-09-30T08:16:08Z</time>
      </trkpt>
      <trkpt lat="43.30866" lon="-0.44667">
        <ele>161.638916</ele>
        <time>2013-09-30T08:16:12Z</time>
      </trkpt>
      <trkpt lat="43.3085" lon="-0.44647">
        <ele>161.158203</ele>
        <time>2013-09-30T08:16:16Z</time>
      </trkpt>
      <trkpt lat="43.30837" lon="-0.44638">
        <ele>162.600098</ele>
        <time>2013-09-30T08:16:19Z</time>
      </trkpt>
      <trkpt lat="43.30826" lon="-0.44613">
        <ele>163.080811</ele>
        <time>2013-09-30T08:16:25Z</time>
      </trkpt>
      <trkpt lat="43.30821" lon="-0.44596">
        <ele>162.119507</ele>
        <time>2013-09-30T08:16:28Z</time>
      </trkpt>
      <trkpt lat="43.30796" lon="-0.44541">
        <ele>161.158203</ele>
        <time>2013-09-30T08:16:36Z</time>
      </trkpt>
      <trkpt lat="43.30763" lon="-0.44388">
        <ele>162.119507</ele>
        <time>2013-09-30T08:16:57Z</time>
      </trkpt>
      <trkpt lat="43.30735" lon="-0.44282">
        <ele>162.119507</ele>
        <time>2013-09-30T08:17:12Z</time>
      </trkpt>
      <trkpt lat="43.3069" lon="-0.4418">
        <ele>162.119507</ele>
        <time>2013-09-30T08:17:28Z</time>
      </trkpt>
      <trkpt lat="43.30636" lon="-0.44089">
        <ele>162.600098</ele>
        <time>2013-09-30T08:17:43Z</time>
      </trkpt>
      <trkpt lat="43.30589" lon="-0.44013">
        <ele>162.600098</ele>
        <time>2013-09-30T08:17:56Z</time>
      </trkpt>
      <trkpt lat="43.30539" lon="-0.43928">
        <ele>165.484131</ele>
        <time>2013-09-30T08:18:10Z</time>
      </trkpt>
      <trkpt lat="43.30489" lon="-0.43837">
        <ele>165.484131</ele>
        <time>2013-09-30T08:18:25Z</time>
      </trkpt>
      <trkpt lat="43.30472" lon="-0.43766">
        <ele>165.964722</ele>
        <time>2013-09-30T08:18:35Z</time>
      </trkpt>
      <trkpt lat="43.30436" lon="-0.43684">
        <ele>165.964722</ele>
        <time>2013-09-30T08:18:48Z</time>
      </trkpt>
      <trkpt lat="43.30428" lon="-0.43657">
        <ele>165.964722</ele>
        <time>2013-09-30T08:18:52Z</time>
      </trkpt>
      <trkpt lat="43.30419" lon="-0.43631">
        <ele>166.445313</ele>
        <time>2013-09-30T08:18:56Z</time>
      </trkpt>
      <trkpt lat="43.304" lon="-0.43599">
        <ele>165.484131</ele>
        <time>2013-09-30T08:19:03Z</time>
      </trkpt>
      <trkpt lat="43.30376" lon="-0.43537">
        <ele>165.964722</ele>
        <time>2013-09-30T08:19:12Z</time>
      </trkpt>
      <trkpt lat="43.30377" lon="-0.4347">
        <ele>165.003418</ele>
        <time>2013-09-30T08:19:19Z</time>
      </trkpt>
      <trkpt lat="43.3037" lon="-0.43438">
        <ele>165.003418</ele>
        <time>2013-09-30T08:19:23Z</time>
      </trkpt>
      <trkpt lat="43.30313" lon="-0.43308">
        <ele>165.484131</ele>
        <time>2013-09-30T08:19:39Z</time>
      </trkpt>
      <trkpt lat="43.30289" lon="-0.4327">
        <ele>165.484131</ele>
        <time>2013-09-30T08:19:45Z</time>
      </trkpt>
      <trkpt lat="43.30278" lon="-0.43245">
        <ele>165.484131</ele>
        <time>2013-09-30T08:19:49Z</time>
      </trkpt>
      <trkpt lat="43.3027" lon="-0.43215">
        <ele>165.484131</ele>
        <time>2013-09-30T08:19:53Z</time>
      </trkpt>
      <trkpt lat="43.30267" lon="-0.43199">
        <ele>165.484131</ele>
        <time>2013-09-30T08:19:55Z</time>
      </trkpt>
      <trkpt lat="43.30263" lon="-0.43151">
        <ele>165.484131</ele>
        <time>2013-09-30T08:20:01Z</time>
      </trkpt>
      <trkpt lat="43.3023" lon="-0.4302">
        <ele>165.964722</ele>
        <time>2013-09-30T08:20:15Z</time>
      </trkpt>
      <trkpt lat="43.30193" lon="-0.42909">
        <ele>165.964722</ele>
        <time>2013-09-30T08:20:27Z</time>
      </trkpt>
      <trkpt lat="43.30178" lon="-0.42864">
        <ele>165.964722</ele>
        <time>2013-09-30T08:20:32Z</time>
      </trkpt>
      <trkpt lat="43.30174" lon="-0.42828">
        <ele>165.964722</ele>
        <time>2013-09-30T08:20:36Z</time>
      </trkpt>
      <trkpt lat="43.30147" lon="-0.42735">
        <ele>165.964722</ele>
        <time>2013-09-30T08:20:49Z</time>
      </trkpt>
      <trkpt lat="43.30122" lon="-0.42638">
        <ele>166.445313</ele>
        <time>2013-09-30T08:21:03Z</time>
      </trkpt>
      <trkpt lat="43.30076" lon="-0.42514">
        <ele>166.445313</ele>
        <time>2013-09-30T08:21:17Z</time>
      </trkpt>
      <trkpt lat="43.30034" lon="-0.42395">
        <ele>166.926025</ele>
        <time>2013-09-30T08:21:30Z</time>
      </trkpt>
      <trkpt lat="43.30025" lon="-0.42368">
        <ele>166.926025</ele>
        <time>2013-09-30T08:21:33Z</time>
      </trkpt>
      <trkpt lat="43.30001" lon="-0.42275">
        <ele>166.445313</ele>
        <time>2013-09-30T08:21:44Z</time>
      </trkpt>
      <trkpt lat="43.29997" lon="-0.42251">
        <ele>166.445313</ele>
        <time>2013-09-30T08:21:47Z</time>
      </trkpt>
      <trkpt lat="43.29994" lon="-0.42184">
        <ele>165.964722</ele>
        <time>2013-09-30T08:21:56Z</time>
      </trkpt>
      <trkpt lat="43.29986" lon="-0.42157">
        <ele>166.445313</ele>
        <time>2013-09-30T08:22:00Z</time>
      </trkpt>
      <trkpt lat="43.29962" lon="-0.42098">
        <ele>166.926025</ele>
        <time>2013-09-30T08:22:08Z</time>
      </trkpt>
      <trkpt lat="43.29957" lon="-0.42071">
        <ele>166.926025</ele>
        <time>2013-09-30T08:22:11Z</time>
      </trkpt>
      <trkpt lat="43.29917" lon="-0.41985">
        <ele>167.406738</ele>
        <time>2013-09-30T08:22:22Z</time>
      </trkpt>
      <trkpt lat="43.29893" lon="-0.41953">
        <ele>167.406738</ele>
        <time>2013-09-30T08:22:28Z</time>
      </trkpt>
      <trkpt lat="43.29882" lon="-0.41939">
        <ele>167.406738</ele>
        <time>2013-09-30T08:22:31Z</time>
      </trkpt>
      <trkpt lat="43.29865" lon="-0.41908">
        <ele>168.368042</ele>
        <time>2013-09-30T08:22:36Z</time>
      </trkpt>
      <trkpt lat="43.29856" lon="-0.4188">
        <ele>168.368042</ele>
        <time>2013-09-30T08:22:40Z</time>
      </trkpt>
      <trkpt lat="43.29839" lon="-0.41827">
        <ele>169.329468</ele>
        <time>2013-09-30T08:22:49Z</time>
      </trkpt>
      <trkpt lat="43.29828" lon="-0.41816">
        <ele>169.329468</ele>
        <time>2013-09-30T08:22:52Z</time>
      </trkpt>
      <trkpt lat="43.29816" lon="-0.41787">
        <ele>169.810059</ele>
        <time>2013-09-30T08:22:57Z</time>
      </trkpt>
      <trkpt lat="43.29816" lon="-0.41773">
        <ele>169.810059</ele>
        <time>2013-09-30T08:22:59Z</time>
      </trkpt>
      <trkpt lat="43.29814" lon="-0.41759">
        <ele>169.810059</ele>
        <time>2013-09-30T08:23:01Z</time>
      </trkpt>
      <trkpt lat="43.29811" lon="-0.41745">
        <ele>169.810059</ele>
        <time>2013-09-30T08:23:03Z</time>
      </trkpt>
      <trkpt lat="43.29798" lon="-0.41698">
        <ele>170.290649</ele>
        <time>2013-09-30T08:23:10Z</time>
      </trkpt>
      <trkpt lat="43.29794" lon="-0.41653">
        <ele>170.771362</ele>
        <time>2013-09-30T08:23:15Z</time>
      </trkpt>
      <trkpt lat="43.29774" lon="-0.41586">
        <ele>170.771362</ele>
        <time>2013-09-30T08:23:23Z</time>
      </trkpt>
      <trkpt lat="43.29767" lon="-0.41556">
        <ele>169.810059</ele>
        <time>2013-09-30T08:23:26Z</time>
      </trkpt>
      <trkpt lat="43.29752" lon="-0.41521">
        <ele>169.810059</ele>
        <time>2013-09-30T08:23:30Z</time>
      </trkpt>
      <trkpt lat="43.29729" lon="-0.41488">
        <ele>169.810059</ele>
        <time>2013-09-30T08:23:35Z</time>
      </trkpt>
      <trkpt lat="43.29712" lon="-0.41463">
        <ele>169.329468</ele>
        <time>2013-09-30T08:23:39Z</time>
      </trkpt>
      <trkpt lat="43.29693" lon="-0.41391">
        <ele>169.329468</ele>
        <time>2013-09-30T08:23:49Z</time>
      </trkpt>
      <trkpt lat="43.29681" lon="-0.41379">
        <ele>169.810059</ele>
        <time>2013-09-30T08:23:53Z</time>
      </trkpt>
      <trkpt lat="43.29649" lon="-0.41379">
        <ele>169.810059</ele>
        <time>2013-09-30T08:24:01Z</time>
      </trkpt>
      <trkpt lat="43.29644" lon="-0.41389">
        <ele>170.290649</ele>
        <time>2013-09-30T08:24:03Z</time>
      </trkpt>
      <trkpt lat="43.29635" lon="-0.41409">
        <ele>174.135864</ele>
        <time>2013-09-30T08:24:08Z</time>
      </trkpt>
      <trkpt lat="43.29634" lon="-0.41412">
        <ele>174.135864</ele>
        <time>2013-09-30T08:24:09Z</time>
      </trkpt>
      <trkpt lat="43.29633" lon="-0.41417">
        <ele>174.616577</ele>
        <time>2013-09-30T08:24:11Z</time>
      </trkpt>
      <trkpt lat="43.29639" lon="-0.41419">
        <ele>175.09729</ele>
        <time>2013-09-30T08:24:15Z</time>
      </trkpt>
      <trkpt lat="43.29648" lon="-0.41409">
        <ele>174.616577</ele>
        <time>2013-09-30T08:24:18Z</time>
      </trkpt>
      <trkpt lat="43.29655" lon="-0.41401">
        <ele>175.09729</ele>
        <time>2013-09-30T08:24:20Z</time>
      </trkpt>
      <trkpt lat="43.29724" lon="-0.41303">
        <ele>174.616577</ele>
        <time>2013-09-30T08:24:37Z</time>
      </trkpt>
      <trkpt lat="43.29749" lon="-0.41267">
        <ele>174.135864</ele>
        <time>2013-09-30T08:24:44Z</time>
      </trkpt>
      <trkpt lat="43.29748" lon="-0.41251">
        <ele>174.616577</ele>
        <time>2013-09-30T08:24:53Z</time>
      </trkpt>
      <trkpt lat="43.29729" lon="-0.41241">
        <ele>172.69397</ele>
        <time>2013-09-30T08:24:58Z</time>
      </trkpt>
      <trkpt lat="43.29719" lon="-0.41238">
        <ele>172.69397</ele>
        <time>2013-09-30T08:25:00Z</time>
      </trkpt>
      <trkpt lat="43.29704" lon="-0.41201">
        <ele>172.69397</ele>
        <time>2013-09-30T08:25:07Z</time>
      </trkpt>
      <trkpt lat="43.29702" lon="-0.41177">
        <ele>172.69397</ele>
        <time>2013-09-30T08:25:11Z</time>
      </trkpt>
      <trkpt lat="43.29686" lon="-0.4115">
        <ele>172.69397</ele>
        <time>2013-09-30T08:25:17Z</time>
      </trkpt>
      <trkpt lat="43.29658" lon="-0.41142">
        <ele>171.732666</ele>
        <time>2013-09-30T08:25:23Z</time>
      </trkpt>
      <trkpt lat="43.29629" lon="-0.41142">
        <ele>169.810059</ele>
        <time>2013-09-30T08:25:27Z</time>
      </trkpt>
      <trkpt lat="43.29622" lon="-0.4114">
        <ele>169.329468</ele>
        <time>2013-09-30T08:25:28Z</time>
      </trkpt>
      <trkpt lat="43.29583" lon="-0.41126">
        <ele>169.329468</ele>
        <time>2013-09-30T08:25:35Z</time>
      </trkpt>
      <trkpt lat="43.29536" lon="-0.41134">
        <ele>170.290649</ele>
        <time>2013-09-30T08:25:45Z</time>
      </trkpt>
      <trkpt lat="43.29517" lon="-0.41112">
        <ele>169.810059</ele>
        <time>2013-09-30T08:25:50Z</time>
      </trkpt>
      <trkpt lat="43.29492" lon="-0.41064">
        <ele>170.771362</ele>
        <time>2013-09-30T08:25:58Z</time>
      </trkpt>
      <trkpt lat="43.29476" lon="-0.41047">
        <ele>171.252075</ele>
        <time>2013-09-30T08:26:02Z</time>
      </trkpt>
      <trkpt lat="43.29448" lon="-0.41026">
        <ele>170.290649</ele>
        <time>2013-09-30T08:26:08Z</time>
      </trkpt>
      <trkpt lat="43.29411" lon="-0.40975">
        <ele>170.290649</ele>
        <time>2013-09-30T08:26:17Z</time>
      </trkpt>
      <trkpt lat="43.29372" lon="-0.40879">
        <ele>170.771362</ele>
        <time>2013-09-30T08:26:31Z</time>
      </trkpt>
      <trkpt lat="43.29361" lon="-0.40842">
        <ele>170.290649</ele>
        <time>2013-09-30T08:26:36Z</time>
      </trkpt>
      <trkpt lat="43.29343" lon="-0.4079">
        <ele>170.771362</ele>
        <time>2013-09-30T08:26:43Z</time>
      </trkpt>
      <trkpt lat="43.29339" lon="-0.40757">
        <ele>170.771362</ele>
        <time>2013-09-30T08:26:47Z</time>
      </trkpt>
      <trkpt lat="43.29348" lon="-0.40698">
        <ele>171.252075</ele>
        <time>2013-09-30T08:26:55Z</time>
      </trkpt>
      <trkpt lat="43.29352" lon="-0.40645">
        <ele>171.732666</ele>
        <time>2013-09-30T08:27:02Z</time>
      </trkpt>
      <trkpt lat="43.29365" lon="-0.40593">
        <ele>172.69397</ele>
        <time>2013-09-30T08:27:10Z</time>
      </trkpt>
      <trkpt lat="43.29364" lon="-0.40586">
        <ele>173.174683</ele>
        <time>2013-09-30T08:27:11Z</time>
      </trkpt>
      <trkpt lat="43.29361" lon="-0.40558">
        <ele>172.69397</ele>
        <time>2013-09-30T08:27:15Z</time>
      </trkpt>
      <trkpt lat="43.29363" lon="-0.40543">
        <ele>172.69397</ele>
        <time>2013-09-30T08:27:17Z</time>
      </trkpt>
      <trkpt lat="43.29378" lon="-0.40498">
        <ele>173.174683</ele>
        <time>2013-09-30T08:27:24Z</time>
      </trkpt>
      <trkpt lat="43.29388" lon="-0.40458">
        <ele>173.174683</ele>
        <time>2013-09-30T08:27:30Z</time>
      </trkpt>
      <trkpt lat="43.29422" lon="-0.40352">
        <ele>173.655273</ele>
        <time>2013-09-30T08:27:46Z</time>
      </trkpt>
      <trkpt lat="43.29426" lon="-0.40327">
        <ele>174.135864</ele>
        <time>2013-09-30T08:27:50Z</time>
      </trkpt>
      <trkpt lat="43.29432" lon="-0.40288">
        <ele>173.655273</ele>
        <time>2013-09-30T08:27:56Z</time>
      </trkpt>
      <trkpt lat="43.29448" lon="-0.40223">
        <ele>174.135864</ele>
        <time>2013-09-30T08:28:06Z</time>
      </trkpt>
      <trkpt lat="43.29471" lon="-0.40169">
        <ele>174.135864</ele>
        <time>2013-09-30T08:28:16Z</time>
      </trkpt>
      <trkpt lat="43.29474" lon="-0.40162">
        <ele>174.135864</ele>
        <time>2013-09-30T08:28:17Z</time>
      </trkpt>
      <trkpt lat="43.29476" lon="-0.4013">
        <ele>174.616577</ele>
        <time>2013-09-30T08:28:22Z</time>
      </trkpt>
      <trkpt lat="43.29474" lon="-0.401">
        <ele>174.135864</ele>
        <time>2013-09-30T08:28:26Z</time>
      </trkpt>
      <trkpt lat="43.29492" lon="-0.40005">
        <ele>172.213257</ele>
        <time>2013-09-30T08:28:37Z</time>
      </trkpt>
      <trkpt lat="43.295" lon="-0.39956">
        <ele>173.174683</ele>
        <time>2013-09-30T08:28:43Z</time>
      </trkpt>
      <trkpt lat="43.29515" lon="-0.39895">
        <ele>174.135864</ele>
        <time>2013-09-30T08:28:53Z</time>
      </trkpt>
      <trkpt lat="43.2951" lon="-0.39837">
        <ele>174.135864</ele>
        <time>2013-09-30T08:29:02Z</time>
      </trkpt>
      <trkpt lat="43.29493" lon="-0.39808">
        <ele>173.655273</ele>
        <time>2013-09-30T08:29:07Z</time>
      </trkpt>
      <trkpt lat="43.29481" lon="-0.39798">
        <ele>173.174683</ele>
        <time>2013-09-30T08:29:09Z</time>
      </trkpt>
      <trkpt lat="43.29437" lon="-0.39723">
        <ele>173.174683</ele>
        <time>2013-09-30T08:29:21Z</time>
      </trkpt>
      <trkpt lat="43.29409" lon="-0.39668">
        <ele>172.69397</ele>
        <time>2013-09-30T08:29:30Z</time>
      </trkpt>
      <trkpt lat="43.29363" lon="-0.3957">
        <ele>173.174683</ele>
        <time>2013-09-30T08:29:46Z</time>
      </trkpt>
      <trkpt lat="43.29359" lon="-0.39565">
        <ele>173.174683</ele>
        <time>2013-09-30T08:29:47Z</time>
      </trkpt>
      <trkpt lat="43.2934" lon="-0.39523">
        <ele>173.174683</ele>
        <time>2013-09-30T08:29:54Z</time>
      </trkpt>
      <trkpt lat="43.29334" lon="-0.3951">
        <ele>173.174683</ele>
        <time>2013-09-30T08:29:56Z</time>
      </trkpt>
      <trkpt lat="43.29315" lon="-0.39474">
        <ele>173.655273</ele>
        <time>2013-09-30T08:30:02Z</time>
      </trkpt>
      <trkpt lat="43.29305" lon="-0.39439">
        <ele>173.174683</ele>
        <time>2013-09-30T08:30:07Z</time>
      </trkpt>
      <trkpt lat="43.29289" lon="-0.3934">
        <ele>173.655273</ele>
        <time>2013-09-30T08:30:20Z</time>
      </trkpt>
      <trkpt lat="43.29278" lon="-0.39225">
        <ele>174.135864</ele>
        <time>2013-09-30T08:30:35Z</time>
      </trkpt>
      <trkpt lat="43.29277" lon="-0.39209">
        <ele>173.655273</ele>
        <time>2013-09-30T08:30:37Z</time>
      </trkpt>
      <trkpt lat="43.29296" lon="-0.39144">
        <ele>174.616577</ele>
        <time>2013-09-30T08:30:46Z</time>
      </trkpt>
      <trkpt lat="43.29304" lon="-0.39106">
        <ele>174.135864</ele>
        <time>2013-09-30T08:30:51Z</time>
      </trkpt>
      <trkpt lat="43.29339" lon="-0.39007">
        <ele>173.655273</ele>
        <time>2013-09-30T08:31:05Z</time>
      </trkpt>
      <trkpt lat="43.29362" lon="-0.38966">
        <ele>173.655273</ele>
        <time>2013-09-30T08:31:12Z</time>
      </trkpt>
      <trkpt lat="43.29405" lon="-0.38918">
        <ele>174.616577</ele>
        <time>2013-09-30T08:31:23Z</time>
      </trkpt>
      <trkpt lat="43.29414" lon="-0.38913">
        <ele>174.616577</ele>
        <time>2013-09-30T08:31:25Z</time>
      </trkpt>
      <trkpt lat="43.29432" lon="-0.38898">
        <ele>174.616577</ele>
        <time>2013-09-30T08:31:29Z</time>
      </trkpt>
      <trkpt lat="43.29461" lon="-0.38845">
        <ele>176.058594</ele>
        <time>2013-09-30T08:31:38Z</time>
      </trkpt>
      <trkpt lat="43.29482" lon="-0.38795">
        <ele>175.09729</ele>
        <time>2013-09-30T08:31:46Z</time>
      </trkpt>
      <trkpt lat="43.29507" lon="-0.38728">
        <ele>176.539307</ele>
        <time>2013-09-30T08:32:00Z</time>
      </trkpt>
      <trkpt lat="43.29513" lon="-0.38724">
        <ele>176.539307</ele>
        <time>2013-09-30T08:32:08Z</time>
      </trkpt>
      <trkpt lat="43.29514" lon="-0.38728">
        <ele>176.058594</ele>
        <time>2013-09-30T08:32:10Z</time>
      </trkpt>
      <trkpt lat="43.29495" lon="-0.38769">
        <ele>175.577881</ele>
        <time>2013-09-30T08:32:22Z</time>
      </trkpt>
      <trkpt lat="43.29487" lon="-0.38784">
        <ele>175.577881</ele>
        <time>2013-09-30T08:32:25Z</time>
      </trkpt>
      <trkpt lat="43.29459" lon="-0.38856">
        <ele>175.09729</ele>
        <time>2013-09-30T08:32:36Z</time>
      </trkpt>
      <trkpt lat="43.29436" lon="-0.38897">
        <ele>174.616577</ele>
        <time>2013-09-30T08:32:43Z</time>
      </trkpt>
      <trkpt lat="43.29397" lon="-0.38928">
        <ele>174.616577</ele>
        <time>2013-09-30T08:32:51Z</time>
      </trkpt>
      <trkpt lat="43.29345" lon="-0.39006">
        <ele>173.655273</ele>
        <time>2013-09-30T08:33:04Z</time>
      </trkpt>
      <trkpt lat="43.2933" lon="-0.39043">
        <ele>173.655273</ele>
        <time>2013-09-30T08:33:09Z</time>
      </trkpt>
      <trkpt lat="43.29318" lon="-0.39072">
        <ele>173.174683</ele>
        <time>2013-09-30T08:33:13Z</time>
      </trkpt>
      <trkpt lat="43.2931" lon="-0.39109">
        <ele>173.174683</ele>
        <time>2013-09-30T08:33:18Z</time>
      </trkpt>
      <trkpt lat="43.29283" lon="-0.39212">
        <ele>173.174683</ele>
        <time>2013-09-30T08:33:32Z</time>
      </trkpt>
      <trkpt lat="43.29281" lon="-0.39226">
        <ele>173.174683</ele>
        <time>2013-09-30T08:33:34Z</time>
      </trkpt>
      <trkpt lat="43.29283" lon="-0.39255">
        <ele>173.174683</ele>
        <time>2013-09-30T08:33:38Z</time>
      </trkpt>
      <trkpt lat="43.29289" lon="-0.39293">
        <ele>172.69397</ele>
        <time>2013-09-30T08:33:43Z</time>
      </trkpt>
      <trkpt lat="43.29304" lon="-0.39422">
        <ele>173.174683</ele>
        <time>2013-09-30T08:33:59Z</time>
      </trkpt>
      <trkpt lat="43.2932" lon="-0.39483">
        <ele>172.213257</ele>
        <time>2013-09-30T08:34:07Z</time>
      </trkpt>
      <trkpt lat="43.29334" lon="-0.3951">
        <ele>172.213257</ele>
        <time>2013-09-30T08:34:11Z</time>
      </trkpt>
      <trkpt lat="43.29375" lon="-0.3959">
        <ele>171.732666</ele>
        <time>2013-09-30T08:34:23Z</time>
      </trkpt>
      <trkpt lat="43.29422" lon="-0.39697">
        <ele>171.252075</ele>
        <time>2013-09-30T08:34:38Z</time>
      </trkpt>
      <trkpt lat="43.29466" lon="-0.39789">
        <ele>171.732666</ele>
        <time>2013-09-30T08:34:52Z</time>
      </trkpt>
      <trkpt lat="43.29477" lon="-0.39804">
        <ele>171.252075</ele>
        <time>2013-09-30T08:34:55Z</time>
      </trkpt>
      <trkpt lat="43.29507" lon="-0.39831">
        <ele>173.655273</ele>
        <time>2013-09-30T08:35:03Z</time>
      </trkpt>
      <trkpt lat="43.29514" lon="-0.39872">
        <ele>173.174683</ele>
        <time>2013-09-30T08:35:10Z</time>
      </trkpt>
      <trkpt lat="43.29516" lon="-0.39933">
        <ele>174.135864</ele>
        <time>2013-09-30T08:35:21Z</time>
      </trkpt>
      <trkpt lat="43.29514" lon="-0.3995">
        <ele>174.135864</ele>
        <time>2013-09-30T08:35:24Z</time>
      </trkpt>
      <trkpt lat="43.29514" lon="-0.39975">
        <ele>174.616577</ele>
        <time>2013-09-30T08:35:28Z</time>
      </trkpt>
      <trkpt lat="43.29495" lon="-0.40073">
        <ele>173.655273</ele>
        <time>2013-09-30T08:35:41Z</time>
      </trkpt>
      <trkpt lat="43.29491" lon="-0.40087">
        <ele>174.135864</ele>
        <time>2013-09-30T08:35:43Z</time>
      </trkpt>
      <trkpt lat="43.29484" lon="-0.40138">
        <ele>173.655273</ele>
        <time>2013-09-30T08:35:52Z</time>
      </trkpt>
      <trkpt lat="43.29482" lon="-0.40153">
        <ele>173.655273</ele>
        <time>2013-09-30T08:35:54Z</time>
      </trkpt>
      <trkpt lat="43.29482" lon="-0.40172">
        <ele>173.174683</ele>
        <time>2013-09-30T08:35:57Z</time>
      </trkpt>
      <trkpt lat="43.29485" lon="-0.40193">
        <ele>172.69397</ele>
        <time>2013-09-30T08:36:00Z</time>
      </trkpt>
      <trkpt lat="43.2949" lon="-0.40248">
        <ele>171.732666</ele>
        <time>2013-09-30T08:36:11Z</time>
      </trkpt>
      <trkpt lat="43.29476" lon="-0.40279">
        <ele>171.732666</ele>
        <time>2013-09-30T08:36:17Z</time>
      </trkpt>
      <trkpt lat="43.29454" lon="-0.40374">
        <ele>170.771362</ele>
        <time>2013-09-30T08:36:29Z</time>
      </trkpt>
      <trkpt lat="43.29452" lon="-0.40415">
        <ele>170.771362</ele>
        <time>2013-09-30T08:36:34Z</time>
      </trkpt>
      <trkpt lat="43.29433" lon="-0.40474">
        <ele>170.290649</ele>
        <time>2013-09-30T08:36:43Z</time>
      </trkpt>
      <trkpt lat="43.29431" lon="-0.40489">
        <ele>170.290649</ele>
        <time>2013-09-30T08:36:45Z</time>
      </trkpt>
      <trkpt lat="43.29423" lon="-0.40612">
        <ele>170.290649</ele>
        <time>2013-09-30T08:37:00Z</time>
      </trkpt>
      <trkpt lat="43.29411" lon="-0.40703">
        <ele>170.290649</ele>
        <time>2013-09-30T08:37:11Z</time>
      </trkpt>
      <trkpt lat="43.29413" lon="-0.40735">
        <ele>169.810059</ele>
        <time>2013-09-30T08:37:15Z</time>
      </trkpt>
      <trkpt lat="43.29426" lon="-0.40766">
        <ele>169.329468</ele>
        <time>2013-09-30T08:37:20Z</time>
      </trkpt>
      <trkpt lat="43.29474" lon="-0.40862">
        <ele>168.848755</ele>
        <time>2013-09-30T08:37:34Z</time>
      </trkpt>
      <trkpt lat="43.29546" lon="-0.40959">
        <ele>169.329468</ele>
        <time>2013-09-30T08:37:50Z</time>
      </trkpt>
      <trkpt lat="43.29588" lon="-0.41012">
        <ele>169.329468</ele>
        <time>2013-09-30T08:38:00Z</time>
      </trkpt>
      <trkpt lat="43.29606" lon="-0.41039">
        <ele>169.329468</ele>
        <time>2013-09-30T08:38:05Z</time>
      </trkpt>
      <trkpt lat="43.2966" lon="-0.41115">
        <ele>170.290649</ele>
        <time>2013-09-30T08:38:18Z</time>
      </trkpt>
      <trkpt lat="43.29697" lon="-0.41167">
        <ele>169.810059</ele>
        <time>2013-09-30T08:38:27Z</time>
      </trkpt>
      <trkpt lat="43.29703" lon="-0.41209">
        <ele>168.848755</ele>
        <time>2013-09-30T08:38:33Z</time>
      </trkpt>
      <trkpt lat="43.29725" lon="-0.41244">
        <ele>168.848755</ele>
        <time>2013-09-30T08:38:40Z</time>
      </trkpt>
      <trkpt lat="43.29747" lon="-0.41253">
        <ele>170.290649</ele>
        <time>2013-09-30T08:38:46Z</time>
      </trkpt>
      <trkpt lat="43.2975" lon="-0.41265">
        <ele>170.771362</ele>
        <time>2013-09-30T08:38:50Z</time>
      </trkpt>
      <trkpt lat="43.29718" lon="-0.41312">
        <ele>171.732666</ele>
        <time>2013-09-30T08:39:02Z</time>
      </trkpt>
      <trkpt lat="43.29638" lon="-0.41423">
        <ele>172.213257</ele>
        <time>2013-09-30T08:39:25Z</time>
      </trkpt>
      <trkpt lat="43.29638" lon="-0.41405">
        <ele>170.771362</ele>
        <time>2013-09-30T08:39:30Z</time>
      </trkpt>
      <trkpt lat="43.29647" lon="-0.41389">
        <ele>169.329468</ele>
        <time>2013-09-30T08:39:32Z</time>
      </trkpt>
      <trkpt lat="43.29677" lon="-0.41378">
        <ele>167.406738</ele>
        <time>2013-09-30T08:39:37Z</time>
      </trkpt>
      <trkpt lat="43.29703" lon="-0.41418">
        <ele>167.406738</ele>
        <time>2013-09-30T08:39:43Z</time>
      </trkpt>
      <trkpt lat="43.29715" lon="-0.41471">
        <ele>167.406738</ele>
        <time>2013-09-30T08:39:50Z</time>
      </trkpt>
      <trkpt lat="43.29722" lon="-0.41482">
        <ele>167.406738</ele>
        <time>2013-09-30T08:39:52Z</time>
      </trkpt>
      <trkpt lat="43.29754" lon="-0.41528">
        <ele>166.926025</ele>
        <time>2013-09-30T08:40:00Z</time>
      </trkpt>
      <trkpt lat="43.29765" lon="-0.41549">
        <ele>167.406738</ele>
        <time>2013-09-30T08:40:03Z</time>
      </trkpt>
      <trkpt lat="43.29769" lon="-0.41565">
        <ele>166.926025</ele>
        <time>2013-09-30T08:40:05Z</time>
      </trkpt>
      <trkpt lat="43.29777" lon="-0.41594">
        <ele>166.926025</ele>
        <time>2013-09-30T08:40:09Z</time>
      </trkpt>
      <trkpt lat="43.29783" lon="-0.41612">
        <ele>167.406738</ele>
        <time>2013-09-30T08:40:12Z</time>
      </trkpt>
      <trkpt lat="43.29799" lon="-0.41667">
        <ele>166.926025</ele>
        <time>2013-09-30T08:40:20Z</time>
      </trkpt>
      <trkpt lat="43.29816" lon="-0.4177">
        <ele>167.406738</ele>
        <time>2013-09-30T08:40:33Z</time>
      </trkpt>
      <trkpt lat="43.29824" lon="-0.41814">
        <ele>166.926025</ele>
        <time>2013-09-30T08:40:39Z</time>
      </trkpt>
      <trkpt lat="43.29838" lon="-0.41831">
        <ele>166.926025</ele>
        <time>2013-09-30T08:40:42Z</time>
      </trkpt>
      <trkpt lat="43.2985" lon="-0.41859">
        <ele>166.926025</ele>
        <time>2013-09-30T08:40:46Z</time>
      </trkpt>
      <trkpt lat="43.29859" lon="-0.41899">
        <ele>166.445313</ele>
        <time>2013-09-30T08:40:51Z</time>
      </trkpt>
      <trkpt lat="43.29867" lon="-0.41921">
        <ele>166.926025</ele>
        <time>2013-09-30T08:40:54Z</time>
      </trkpt>
      <trkpt lat="43.29884" lon="-0.41946">
        <ele>165.964722</ele>
        <time>2013-09-30T08:40:58Z</time>
      </trkpt>
      <trkpt lat="43.2991" lon="-0.41975">
        <ele>165.964722</ele>
        <time>2013-09-30T08:41:03Z</time>
      </trkpt>
      <trkpt lat="43.29925" lon="-0.42001">
        <ele>165.964722</ele>
        <time>2013-09-30T08:41:07Z</time>
      </trkpt>
      <trkpt lat="43.29931" lon="-0.42015">
        <ele>165.964722</ele>
        <time>2013-09-30T08:41:09Z</time>
      </trkpt>
      <trkpt lat="43.29953" lon="-0.42062">
        <ele>165.484131</ele>
        <time>2013-09-30T08:41:15Z</time>
      </trkpt>
      <trkpt lat="43.29959" lon="-0.42078">
        <ele>165.003418</ele>
        <time>2013-09-30T08:41:17Z</time>
      </trkpt>
      <trkpt lat="43.2999" lon="-0.42164">
        <ele>165.003418</ele>
        <time>2013-09-30T08:41:28Z</time>
      </trkpt>
      <trkpt lat="43.29994" lon="-0.42253">
        <ele>163.561523</ele>
        <time>2013-09-30T08:41:39Z</time>
      </trkpt>
      <trkpt lat="43.29996" lon="-0.42277">
        <ele>163.561523</ele>
        <time>2013-09-30T08:41:42Z</time>
      </trkpt>
      <trkpt lat="43.30011" lon="-0.42322">
        <ele>164.042114</ele>
        <time>2013-09-30T08:41:48Z</time>
      </trkpt>
      <trkpt lat="43.30028" lon="-0.42383">
        <ele>164.042114</ele>
        <time>2013-09-30T08:41:56Z</time>
      </trkpt>
      <trkpt lat="43.30064" lon="-0.42472">
        <ele>164.522705</ele>
        <time>2013-09-30T08:42:08Z</time>
      </trkpt>
      <trkpt lat="43.30073" lon="-0.42501">
        <ele>164.522705</ele>
        <time>2013-09-30T08:42:12Z</time>
      </trkpt>
      <trkpt lat="43.30117" lon="-0.42616">
        <ele>163.561523</ele>
        <time>2013-09-30T08:42:27Z</time>
      </trkpt>
      <trkpt lat="43.30149" lon="-0.42736">
        <ele>162.600098</ele>
        <time>2013-09-30T08:42:42Z</time>
      </trkpt>
      <trkpt lat="43.30176" lon="-0.42842">
        <ele>162.600098</ele>
        <time>2013-09-30T08:42:55Z</time>
      </trkpt>
      <trkpt lat="43.30183" lon="-0.42875">
        <ele>163.080811</ele>
        <time>2013-09-30T08:42:59Z</time>
      </trkpt>
      <trkpt lat="43.30223" lon="-0.43">
        <ele>162.119507</ele>
        <time>2013-09-30T08:43:15Z</time>
      </trkpt>
      <trkpt lat="43.3025" lon="-0.43132">
        <ele>163.080811</ele>
        <time>2013-09-30T08:43:31Z</time>
      </trkpt>
      <trkpt lat="43.30261" lon="-0.43163">
        <ele>162.600098</ele>
        <time>2013-09-30T08:43:35Z</time>
      </trkpt>
      <trkpt lat="43.30267" lon="-0.43197">
        <ele>163.080811</ele>
        <time>2013-09-30T08:43:39Z</time>
      </trkpt>
      <trkpt lat="43.3027" lon="-0.43214">
        <ele>162.600098</ele>
        <time>2013-09-30T08:43:41Z</time>
      </trkpt>
      <trkpt lat="43.30273" lon="-0.4323">
        <ele>162.600098</ele>
        <time>2013-09-30T08:43:43Z</time>
      </trkpt>
      <trkpt lat="43.30286" lon="-0.4326">
        <ele>162.600098</ele>
        <time>2013-09-30T08:43:47Z</time>
      </trkpt>
      <trkpt lat="43.30316" lon="-0.43318">
        <ele>162.119507</ele>
        <time>2013-09-30T08:43:55Z</time>
      </trkpt>
      <trkpt lat="43.30331" lon="-0.43348">
        <ele>161.638916</ele>
        <time>2013-09-30T08:43:59Z</time>
      </trkpt>
      <trkpt lat="43.3035" lon="-0.43394">
        <ele>161.638916</ele>
        <time>2013-09-30T08:44:05Z</time>
      </trkpt>
      <trkpt lat="43.30367" lon="-0.43439">
        <ele>161.638916</ele>
        <time>2013-09-30T08:44:11Z</time>
      </trkpt>
      <trkpt lat="43.30379" lon="-0.43463">
        <ele>161.638916</ele>
        <time>2013-09-30T08:44:14Z</time>
      </trkpt>
      <trkpt lat="43.30381" lon="-0.43497">
        <ele>161.158203</ele>
        <time>2013-09-30T08:44:18Z</time>
      </trkpt>
      <trkpt lat="43.30375" lon="-0.43519">
        <ele>161.638916</ele>
        <time>2013-09-30T08:44:21Z</time>
      </trkpt>
      <trkpt lat="43.30378" lon="-0.43547">
        <ele>163.080811</ele>
        <time>2013-09-30T08:44:25Z</time>
      </trkpt>
      <trkpt lat="43.30388" lon="-0.43581">
        <ele>163.561523</ele>
        <time>2013-09-30T08:44:32Z</time>
      </trkpt>
      <trkpt lat="43.30399" lon="-0.43587">
        <ele>163.561523</ele>
        <time>2013-09-30T08:44:34Z</time>
      </trkpt>
      <trkpt lat="43.30416" lon="-0.43614">
        <ele>163.561523</ele>
        <time>2013-09-30T08:44:39Z</time>
      </trkpt>
      <trkpt lat="43.30421" lon="-0.43626">
        <ele>163.080811</ele>
        <time>2013-09-30T08:44:41Z</time>
      </trkpt>
      <trkpt lat="43.30426" lon="-0.43648">
        <ele>163.561523</ele>
        <time>2013-09-30T08:44:44Z</time>
      </trkpt>
      <trkpt lat="43.30446" lon="-0.4371">
        <ele>163.080811</ele>
        <time>2013-09-30T08:44:53Z</time>
      </trkpt>
      <trkpt lat="43.3046" lon="-0.43743">
        <ele>163.080811</ele>
        <time>2013-09-30T08:44:58Z</time>
      </trkpt>
      <trkpt lat="43.30471" lon="-0.43761">
        <ele>163.080811</ele>
        <time>2013-09-30T08:45:01Z</time>
      </trkpt>
      <trkpt lat="43.30482" lon="-0.43781">
        <ele>163.080811</ele>
        <time>2013-09-30T08:45:04Z</time>
      </trkpt>
      <trkpt lat="43.30487" lon="-0.43813">
        <ele>163.080811</ele>
        <time>2013-09-30T08:45:08Z</time>
      </trkpt>
      <trkpt lat="43.30536" lon="-0.43922">
        <ele>162.119507</ele>
        <time>2013-09-30T08:45:23Z</time>
      </trkpt>
      <trkpt lat="43.30578" lon="-0.43996">
        <ele>159.716187</ele>
        <time>2013-09-30T08:45:34Z</time>
      </trkpt>
      <trkpt lat="43.30639" lon="-0.44093">
        <ele>158.27417</ele>
        <time>2013-09-30T08:45:49Z</time>
      </trkpt>
      <trkpt lat="43.30643" lon="-0.441">
        <ele>158.27417</ele>
        <time>2013-09-30T08:45:50Z</time>
      </trkpt>
      <trkpt lat="43.30692" lon="-0.44186">
        <ele>158.754761</ele>
        <time>2013-09-30T08:46:02Z</time>
      </trkpt>
      <trkpt lat="43.30745" lon="-0.44307">
        <ele>158.27417</ele>
        <time>2013-09-30T08:46:18Z</time>
      </trkpt>
      <trkpt lat="43.30774" lon="-0.44442">
        <ele>157.793579</ele>
        <time>2013-09-30T08:46:34Z</time>
      </trkpt>
      <trkpt lat="43.308" lon="-0.44552">
        <ele>156.351563</ele>
        <time>2013-09-30T08:46:47Z</time>
      </trkpt>
      <trkpt lat="43.30823" lon="-0.44599">
        <ele>158.27417</ele>
        <time>2013-09-30T08:46:53Z</time>
      </trkpt>
      <trkpt lat="43.30827" lon="-0.44613">
        <ele>158.754761</ele>
        <time>2013-09-30T08:46:55Z</time>
      </trkpt>
      <trkpt lat="43.30833" lon="-0.44631">
        <ele>159.716187</ele>
        <time>2013-09-30T08:46:58Z</time>
      </trkpt>
      <trkpt lat="43.30852" lon="-0.44654">
        <ele>157.312866</ele>
        <time>2013-09-30T08:47:03Z</time>
      </trkpt>
      <trkpt lat="43.3089" lon="-0.44721">
        <ele>156.832153</ele>
        <time>2013-09-30T08:47:12Z</time>
      </trkpt>
      <trkpt lat="43.30933" lon="-0.44758">
        <ele>156.351563</ele>
        <time>2013-09-30T08:47:20Z</time>
      </trkpt>
      <trkpt lat="43.30954" lon="-0.4478">
        <ele>155.870972</ele>
        <time>2013-09-30T08:47:24Z</time>
      </trkpt>
      <trkpt lat="43.31003" lon="-0.44859">
        <ele>155.870972</ele>
        <time>2013-09-30T08:47:36Z</time>
      </trkpt>
      <trkpt lat="43.31087" lon="-0.44923">
        <ele>155.870972</ele>
        <time>2013-09-30T08:47:51Z</time>
      </trkpt>
      <trkpt lat="43.31168" lon="-0.44988">
        <ele>155.390259</ele>
        <time>2013-09-30T08:48:06Z</time>
      </trkpt>
      <trkpt lat="43.31254" lon="-0.45051">
        <ele>155.390259</ele>
        <time>2013-09-30T08:48:22Z</time>
      </trkpt>
      <trkpt lat="43.31313" lon="-0.45088">
        <ele>155.390259</ele>
        <time>2013-09-30T08:48:33Z</time>
      </trkpt>
      <trkpt lat="43.31388" lon="-0.45123">
        <ele>155.870972</ele>
        <time>2013-09-30T08:48:46Z</time>
      </trkpt>
      <trkpt lat="43.31434" lon="-0.45136">
        <ele>155.870972</ele>
        <time>2013-09-30T08:48:53Z</time>
      </trkpt>
      <trkpt lat="43.31464" lon="-0.45155">
        <ele>157.312866</ele>
        <time>2013-09-30T08:48:59Z</time>
      </trkpt>
      <trkpt lat="43.31485" lon="-0.45161">
        <ele>157.793579</ele>
        <time>2013-09-30T08:49:03Z</time>
      </trkpt>
      <trkpt lat="43.31496" lon="-0.45162">
        <ele>156.832153</ele>
        <time>2013-09-30T08:49:05Z</time>
      </trkpt>
      <trkpt lat="43.31537" lon="-0.4518">
        <ele>156.351563</ele>
        <time>2013-09-30T08:49:12Z</time>
      </trkpt>
      <trkpt lat="43.31556" lon="-0.45192">
        <ele>156.832153</ele>
        <time>2013-09-30T08:49:16Z</time>
      </trkpt>
      <trkpt lat="43.31584" lon="-0.45196">
        <ele>155.870972</ele>
        <time>2013-09-30T08:49:21Z</time>
      </trkpt>
      <trkpt lat="43.31678" lon="-0.45182">
        <ele>155.870972</ele>
        <time>2013-09-30T08:49:37Z</time>
      </trkpt>
      <trkpt lat="43.3175" lon="-0.45204">
        <ele>154.909546</ele>
        <time>2013-09-30T08:49:49Z</time>
      </trkpt>
      <trkpt lat="43.3179" lon="-0.45223">
        <ele>155.390259</ele>
        <time>2013-09-30T08:49:56Z</time>
      </trkpt>
      <trkpt lat="43.3181" lon="-0.45263">
        <ele>155.390259</ele>
        <time>2013-09-30T08:50:02Z</time>
      </trkpt>
      <trkpt lat="43.31813" lon="-0.45287">
        <ele>154.909546</ele>
        <time>2013-09-30T08:50:05Z</time>
      </trkpt>
      <trkpt lat="43.31823" lon="-0.4532">
        <ele>153.948364</ele>
        <time>2013-09-30T08:50:09Z</time>
      </trkpt>
      <trkpt lat="43.31844" lon="-0.4534">
        <ele>154.428955</ele>
        <time>2013-09-30T08:50:13Z</time>
      </trkpt>
      <trkpt lat="43.31868" lon="-0.45359">
        <ele>153.467651</ele>
        <time>2013-09-30T08:50:18Z</time>
      </trkpt>
      <trkpt lat="43.31906" lon="-0.45415">
        <ele>154.909546</ele>
        <time>2013-09-30T08:50:27Z</time>
      </trkpt>
      <trkpt lat="43.31982" lon="-0.45468">
        <ele>154.428955</ele>
        <time>2013-09-30T08:50:41Z</time>
      </trkpt>
      <trkpt lat="43.32087" lon="-0.45525">
        <ele>155.390259</ele>
        <time>2013-09-30T08:50:59Z</time>
      </trkpt>
      <trkpt lat="43.32177" lon="-0.45565">
        <ele>154.909546</ele>
        <time>2013-09-30T08:51:14Z</time>
      </trkpt>
      <trkpt lat="43.32282" lon="-0.4564">
        <ele>155.390259</ele>
        <time>2013-09-30T08:51:33Z</time>
      </trkpt>
      <trkpt lat="43.32373" lon="-0.45704">
        <ele>153.948364</ele>
        <time>2013-09-30T08:51:49Z</time>
      </trkpt>
      <trkpt lat="43.32457" lon="-0.45764">
        <ele>152.506348</ele>
        <time>2013-09-30T08:52:04Z</time>
      </trkpt>
      <trkpt lat="43.32473" lon="-0.45788">
        <ele>152.506348</ele>
        <time>2013-09-30T08:52:08Z</time>
      </trkpt>
      <trkpt lat="43.32481" lon="-0.458">
        <ele>152.506348</ele>
        <time>2013-09-30T08:52:10Z</time>
      </trkpt>
      <trkpt lat="43.32556" lon="-0.45877">
        <ele>152.506348</ele>
        <time>2013-09-30T08:52:24Z</time>
      </trkpt>
      <trkpt lat="43.32623" lon="-0.45947">
        <ele>152.506348</ele>
        <time>2013-09-30T08:52:37Z</time>
      </trkpt>
      <trkpt lat="43.32661" lon="-0.45982">
        <ele>152.025757</ele>
        <time>2013-09-30T08:52:44Z</time>
      </trkpt>
      <trkpt lat="43.32738" lon="-0.4609">
        <ele>151.544922</ele>
        <time>2013-09-30T08:53:01Z</time>
      </trkpt>
      <trkpt lat="43.32789" lon="-0.46182">
        <ele>151.064209</ele>
        <time>2013-09-30T08:53:15Z</time>
      </trkpt>
      <trkpt lat="43.32849" lon="-0.46265">
        <ele>151.064209</ele>
        <time>2013-09-30T08:53:29Z</time>
      </trkpt>
      <trkpt lat="43.32938" lon="-0.46376">
        <ele>151.064209</ele>
        <time>2013-09-30T08:53:48Z</time>
      </trkpt>
      <trkpt lat="43.32978" lon="-0.46412">
        <ele>150.103027</ele>
        <time>2013-09-30T08:53:55Z</time>
      </trkpt>
      <trkpt lat="43.32987" lon="-0.46424">
        <ele>150.583618</ele>
        <time>2013-09-30T08:53:57Z</time>
      </trkpt>
      <trkpt lat="43.33009" lon="-0.4644">
        <ele>150.103027</ele>
        <time>2013-09-30T08:54:01Z</time>
      </trkpt>
      <trkpt lat="43.33056" lon="-0.46468">
        <ele>149.622314</ele>
        <time>2013-09-30T08:54:09Z</time>
      </trkpt>
      <trkpt lat="43.33081" lon="-0.46507">
        <ele>149.622314</ele>
        <time>2013-09-30T08:54:15Z</time>
      </trkpt>
      <trkpt lat="43.33106" lon="-0.46551">
        <ele>148.661011</ele>
        <time>2013-09-30T08:54:21Z</time>
      </trkpt>
      <trkpt lat="43.33119" lon="-0.46584">
        <ele>148.18042</ele>
        <time>2013-09-30T08:54:24Z</time>
      </trkpt>
      <trkpt lat="43.33099" lon="-0.46633">
        <ele>148.661011</ele>
        <time>2013-09-30T08:54:32Z</time>
      </trkpt>
      <trkpt lat="43.33072" lon="-0.46666">
        <ele>149.141602</ele>
        <time>2013-09-30T08:54:38Z</time>
      </trkpt>
      <trkpt lat="43.33064" lon="-0.4669">
        <ele>148.661011</ele>
        <time>2013-09-30T08:54:41Z</time>
      </trkpt>
      <trkpt lat="43.33042" lon="-0.46723">
        <ele>148.18042</ele>
        <time>2013-09-30T08:54:46Z</time>
      </trkpt>
      <trkpt lat="43.32975" lon="-0.46788">
        <ele>148.661011</ele>
        <time>2013-09-30T08:54:59Z</time>
      </trkpt>
      <trkpt lat="43.32936" lon="-0.46841">
        <ele>148.661011</ele>
        <time>2013-09-30T08:55:08Z</time>
      </trkpt>
      <trkpt lat="43.32857" lon="-0.46936">
        <ele>148.661011</ele>
        <time>2013-09-30T08:55:25Z</time>
      </trkpt>
      <trkpt lat="43.32813" lon="-0.4705">
        <ele>149.141602</ele>
        <time>2013-09-30T08:55:41Z</time>
      </trkpt>
      <trkpt lat="43.3281" lon="-0.4709">
        <ele>148.661011</ele>
        <time>2013-09-30T08:55:46Z</time>
      </trkpt>
      <trkpt lat="43.32813" lon="-0.4721">
        <ele>149.141602</ele>
        <time>2013-09-30T08:56:00Z</time>
      </trkpt>
      <trkpt lat="43.32816" lon="-0.4728">
        <ele>146.738403</ele>
        <time>2013-09-30T08:56:08Z</time>
      </trkpt>
      <trkpt lat="43.32838" lon="-0.47416">
        <ele>146.257813</ele>
        <time>2013-09-30T08:56:24Z</time>
      </trkpt>
      <trkpt lat="43.32845" lon="-0.4745">
        <ele>145.7771</ele>
        <time>2013-09-30T08:56:28Z</time>
      </trkpt>
      <trkpt lat="43.32864" lon="-0.47493">
        <ele>146.257813</ele>
        <time>2013-09-30T08:56:34Z</time>
      </trkpt>
      <trkpt lat="43.32857" lon="-0.47534">
        <ele>146.738403</ele>
        <time>2013-09-30T08:56:41Z</time>
      </trkpt>
      <trkpt lat="43.3283" lon="-0.47569">
        <ele>147.218994</ele>
        <time>2013-09-30T08:56:47Z</time>
      </trkpt>
      <trkpt lat="43.32837" lon="-0.47584">
        <ele>145.7771</ele>
        <time>2013-09-30T08:56:49Z</time>
      </trkpt>
      <trkpt lat="43.32865" lon="-0.47658">
        <ele>146.257813</ele>
        <time>2013-09-30T08:56:59Z</time>
      </trkpt>
      <trkpt lat="43.32874" lon="-0.4768">
        <ele>146.738403</ele>
        <time>2013-09-30T08:57:02Z</time>
      </trkpt>
      <trkpt lat="43.32925" lon="-0.47802">
        <ele>146.257813</ele>
        <time>2013-09-30T08:57:19Z</time>
      </trkpt>
      <trkpt lat="43.32966" lon="-0.47896">
        <ele>147.218994</ele>
        <time>2013-09-30T08:57:32Z</time>
      </trkpt>
      <trkpt lat="43.32969" lon="-0.47904">
        <ele>146.738403</ele>
        <time>2013-09-30T08:57:33Z</time>
      </trkpt>
      <trkpt lat="43.32984" lon="-0.47931">
        <ele>146.257813</ele>
        <time>2013-09-30T08:57:37Z</time>
      </trkpt>
      <trkpt lat="43.32993" lon="-0.47952">
        <ele>146.257813</ele>
        <time>2013-09-30T08:57:40Z</time>
      </trkpt>
      <trkpt lat="43.33006" lon="-0.48006">
        <ele>146.738403</ele>
        <time>2013-09-30T08:57:47Z</time>
      </trkpt>
      <trkpt lat="43.33012" lon="-0.48029">
        <ele>145.296387</ele>
        <time>2013-09-30T08:57:50Z</time>
      </trkpt>
      <trkpt lat="43.33041" lon="-0.48087">
        <ele>145.7771</ele>
        <time>2013-09-30T08:57:58Z</time>
      </trkpt>
      <trkpt lat="43.33051" lon="-0.48117">
        <ele>145.7771</ele>
        <time>2013-09-30T08:58:02Z</time>
      </trkpt>
      <trkpt lat="43.33066" lon="-0.48189">
        <ele>146.257813</ele>
        <time>2013-09-30T08:58:11Z</time>
      </trkpt>
      <trkpt lat="43.33052" lon="-0.48257">
        <ele>145.296387</ele>
        <time>2013-09-30T08:58:21Z</time>
      </trkpt>
      <trkpt lat="43.33086" lon="-0.48345">
        <ele>144.335205</ele>
        <time>2013-09-30T08:58:35Z</time>
      </trkpt>
      <trkpt lat="43.33094" lon="-0.48357">
        <ele>144.815796</ele>
        <time>2013-09-30T08:58:37Z</time>
      </trkpt>
      <trkpt lat="43.33103" lon="-0.48386">
        <ele>145.296387</ele>
        <time>2013-09-30T08:58:41Z</time>
      </trkpt>
      <trkpt lat="43.33142" lon="-0.48427">
        <ele>144.815796</ele>
        <time>2013-09-30T08:58:50Z</time>
      </trkpt>
      <trkpt lat="43.3316" lon="-0.48433">
        <ele>144.335205</ele>
        <time>2013-09-30T08:58:53Z</time>
      </trkpt>
      <trkpt lat="43.33201" lon="-0.4849">
        <ele>142.893066</ele>
        <time>2013-09-30T08:59:03Z</time>
      </trkpt>
      <trkpt lat="43.33197" lon="-0.48524">
        <ele>143.373657</ele>
        <time>2013-09-30T08:59:07Z</time>
      </trkpt>
      <trkpt lat="43.33192" lon="-0.48546">
        <ele>143.373657</ele>
        <time>2013-09-30T08:59:10Z</time>
      </trkpt>
      <trkpt lat="43.33193" lon="-0.48593">
        <ele>143.373657</ele>
        <time>2013-09-30T08:59:16Z</time>
      </trkpt>
      <trkpt lat="43.33199" lon="-0.48609">
        <ele>143.373657</ele>
        <time>2013-09-30T08:59:18Z</time>
      </trkpt>
      <trkpt lat="43.33225" lon="-0.48651">
        <ele>142.412476</ele>
        <time>2013-09-30T08:59:24Z</time>
      </trkpt>
      <trkpt lat="43.33289" lon="-0.48732">
        <ele>142.893066</ele>
        <time>2013-09-30T08:59:38Z</time>
      </trkpt>
      <trkpt lat="43.33302" lon="-0.48752">
        <ele>142.412476</ele>
        <time>2013-09-30T08:59:41Z</time>
      </trkpt>
      <trkpt lat="43.33312" lon="-0.48783">
        <ele>142.412476</ele>
        <time>2013-09-30T08:59:45Z</time>
      </trkpt>
      <trkpt lat="43.33321" lon="-0.48803">
        <ele>143.373657</ele>
        <time>2013-09-30T08:59:48Z</time>
      </trkpt>
      <trkpt lat="43.33359" lon="-0.48847">
        <ele>143.373657</ele>
        <time>2013-09-30T08:59:57Z</time>
      </trkpt>
      <trkpt lat="43.33389" lon="-0.48852">
        <ele>143.85437</ele>
        <time>2013-09-30T09:00:03Z</time>
      </trkpt>
      <trkpt lat="43.33431" lon="-0.48821">
        <ele>142.893066</ele>
        <time>2013-09-30T09:00:11Z</time>
      </trkpt>
      <trkpt lat="43.33458" lon="-0.48839">
        <ele>142.893066</ele>
        <time>2013-09-30T09:00:17Z</time>
      </trkpt>
      <trkpt lat="43.33496" lon="-0.48972">
        <ele>141.931763</ele>
        <time>2013-09-30T09:00:34Z</time>
      </trkpt>
      <trkpt lat="43.33533" lon="-0.49068">
        <ele>142.412476</ele>
        <time>2013-09-30T09:00:48Z</time>
      </trkpt>
      <trkpt lat="43.3359" lon="-0.49158">
        <ele>141.45105</ele>
        <time>2013-09-30T09:01:02Z</time>
      </trkpt>
      <trkpt lat="43.33615" lon="-0.49186">
        <ele>140.489868</ele>
        <time>2013-09-30T09:01:07Z</time>
      </trkpt>
      <trkpt lat="43.33627" lon="-0.49223">
        <ele>140.970459</ele>
        <time>2013-09-30T09:01:12Z</time>
      </trkpt>
      <trkpt lat="43.33634" lon="-0.49266">
        <ele>140.009155</ele>
        <time>2013-09-30T09:01:17Z</time>
      </trkpt>
      <trkpt lat="43.33653" lon="-0.49288">
        <ele>140.009155</ele>
        <time>2013-09-30T09:01:21Z</time>
      </trkpt>
      <trkpt lat="43.33676" lon="-0.49299">
        <ele>140.009155</ele>
        <time>2013-09-30T09:01:25Z</time>
      </trkpt>
      <trkpt lat="43.33694" lon="-0.49319">
        <ele>140.009155</ele>
        <time>2013-09-30T09:01:29Z</time>
      </trkpt>
      <trkpt lat="43.33709" lon="-0.49356">
        <ele>140.009155</ele>
        <time>2013-09-30T09:01:34Z</time>
      </trkpt>
      <trkpt lat="43.33729" lon="-0.49436">
        <ele>140.009155</ele>
        <time>2013-09-30T09:01:44Z</time>
      </trkpt>
      <trkpt lat="43.33775" lon="-0.49471">
        <ele>140.489868</ele>
        <time>2013-09-30T09:01:53Z</time>
      </trkpt>
      <trkpt lat="43.33779" lon="-0.49477">
        <ele>139.528442</ele>
        <time>2013-09-30T09:01:54Z</time>
      </trkpt>
      <trkpt lat="43.33818" lon="-0.49563">
        <ele>139.528442</ele>
        <time>2013-09-30T09:02:06Z</time>
      </trkpt>
      <trkpt lat="43.33827" lon="-0.49585">
        <ele>139.528442</ele>
        <time>2013-09-30T09:02:09Z</time>
      </trkpt>
      <trkpt lat="43.33831" lon="-0.49624">
        <ele>139.528442</ele>
        <time>2013-09-30T09:02:14Z</time>
      </trkpt>
      <trkpt lat="43.33834" lon="-0.49648">
        <ele>140.009155</ele>
        <time>2013-09-30T09:02:17Z</time>
      </trkpt>
      <trkpt lat="43.33842" lon="-0.49679">
        <ele>139.528442</ele>
        <time>2013-09-30T09:02:21Z</time>
      </trkpt>
      <trkpt lat="43.33851" lon="-0.49703">
        <ele>139.528442</ele>
        <time>2013-09-30T09:02:24Z</time>
      </trkpt>
      <trkpt lat="43.33869" lon="-0.49759">
        <ele>139.047852</ele>
        <time>2013-09-30T09:02:31Z</time>
      </trkpt>
      <trkpt lat="43.33875" lon="-0.49772">
        <ele>139.047852</ele>
        <time>2013-09-30T09:02:33Z</time>
      </trkpt>
      <trkpt lat="43.33867" lon="-0.49807">
        <ele>139.528442</ele>
        <time>2013-09-30T09:02:40Z</time>
      </trkpt>
      <trkpt lat="43.33872" lon="-0.49816">
        <ele>139.528442</ele>
        <time>2013-09-30T09:02:42Z</time>
      </trkpt>
      <trkpt lat="43.33881" lon="-0.49828">
        <ele>139.047852</ele>
        <time>2013-09-30T09:02:44Z</time>
      </trkpt>
      <trkpt lat="43.3389" lon="-0.49842">
        <ele>139.047852</ele>
        <time>2013-09-30T09:02:46Z</time>
      </trkpt>
      <trkpt lat="43.33901" lon="-0.49872">
        <ele>140.009155</ele>
        <time>2013-09-30T09:02:50Z</time>
      </trkpt>
      <trkpt lat="43.33916" lon="-0.49897">
        <ele>141.45105</ele>
        <time>2013-09-30T09:02:54Z</time>
      </trkpt>
      <trkpt lat="43.3393" lon="-0.4991">
        <ele>140.009155</ele>
        <time>2013-09-30T09:02:57Z</time>
      </trkpt>
      <trkpt lat="43.33973" lon="-0.50008">
        <ele>138.567261</ele>
        <time>2013-09-30T09:03:09Z</time>
      </trkpt>
      <trkpt lat="43.34005" lon="-0.50124">
        <ele>137.605835</ele>
        <time>2013-09-30T09:03:23Z</time>
      </trkpt>
      <trkpt lat="43.34021" lon="-0.50147">
        <ele>138.567261</ele>
        <time>2013-09-30T09:03:27Z</time>
      </trkpt>
      <trkpt lat="43.34078" lon="-0.50218">
        <ele>138.567261</ele>
        <time>2013-09-30T09:03:40Z</time>
      </trkpt>
      <trkpt lat="43.34085" lon="-0.50229">
        <ele>138.567261</ele>
        <time>2013-09-30T09:03:42Z</time>
      </trkpt>
      <trkpt lat="43.3416" lon="-0.50313">
        <ele>138.567261</ele>
        <time>2013-09-30T09:03:59Z</time>
      </trkpt>
      <trkpt lat="43.3417" lon="-0.50322">
        <ele>139.047852</ele>
        <time>2013-09-30T09:04:01Z</time>
      </trkpt>
      <trkpt lat="43.34197" lon="-0.50337">
        <ele>139.047852</ele>
        <time>2013-09-30T09:04:06Z</time>
      </trkpt>
      <trkpt lat="43.3426" lon="-0.50384">
        <ele>137.605835</ele>
        <time>2013-09-30T09:04:18Z</time>
      </trkpt>
      <trkpt lat="43.34276" lon="-0.50399">
        <ele>137.125244</ele>
        <time>2013-09-30T09:04:21Z</time>
      </trkpt>
      <trkpt lat="43.34306" lon="-0.50441">
        <ele>137.125244</ele>
        <time>2013-09-30T09:04:28Z</time>
      </trkpt>
      <trkpt lat="43.34319" lon="-0.50455">
        <ele>138.086548</ele>
        <time>2013-09-30T09:04:31Z</time>
      </trkpt>
      <trkpt lat="43.34331" lon="-0.50471">
        <ele>137.605835</ele>
        <time>2013-09-30T09:04:34Z</time>
      </trkpt>
      <trkpt lat="43.34357" lon="-0.50492">
        <ele>137.125244</ele>
        <time>2013-09-30T09:04:39Z</time>
      </trkpt>
      <trkpt lat="43.34419" lon="-0.50523">
        <ele>137.125244</ele>
        <time>2013-09-30T09:04:50Z</time>
      </trkpt>
      <trkpt lat="43.34434" lon="-0.50546">
        <ele>137.125244</ele>
        <time>2013-09-30T09:04:54Z</time>
      </trkpt>
      <trkpt lat="43.34493" lon="-0.50603">
        <ele>136.644653</ele>
        <time>2013-09-30T09:05:06Z</time>
      </trkpt>
      <trkpt lat="43.34506" lon="-0.50619">
        <ele>137.125244</ele>
        <time>2013-09-30T09:05:09Z</time>
      </trkpt>
      <trkpt lat="43.34559" lon="-0.50699">
        <ele>137.125244</ele>
        <time>2013-09-30T09:05:22Z</time>
      </trkpt>
      <trkpt lat="43.34597" lon="-0.50746">
        <ele>136.644653</ele>
        <time>2013-09-30T09:05:31Z</time>
      </trkpt>
      <trkpt lat="43.34607" lon="-0.50765">
        <ele>136.644653</ele>
        <time>2013-09-30T09:05:34Z</time>
      </trkpt>
      <trkpt lat="43.34622" lon="-0.50801">
        <ele>136.644653</ele>
        <time>2013-09-30T09:05:39Z</time>
      </trkpt>
      <trkpt lat="43.34633" lon="-0.50819">
        <ele>137.125244</ele>
        <time>2013-09-30T09:05:42Z</time>
      </trkpt>
      <trkpt lat="43.3469" lon="-0.50897">
        <ele>136.16394</ele>
        <time>2013-09-30T09:05:54Z</time>
      </trkpt>
      <trkpt lat="43.34706" lon="-0.50933">
        <ele>136.644653</ele>
        <time>2013-09-30T09:05:59Z</time>
      </trkpt>
      <trkpt lat="43.34719" lon="-0.50953">
        <ele>136.644653</ele>
        <time>2013-09-30T09:06:02Z</time>
      </trkpt>
      <trkpt lat="43.34734" lon="-0.50988">
        <ele>135.683105</ele>
        <time>2013-09-30T09:06:07Z</time>
      </trkpt>
      <trkpt lat="43.34747" lon="-0.51009">
        <ele>135.683105</ele>
        <time>2013-09-30T09:06:10Z</time>
      </trkpt>
      <trkpt lat="43.3475" lon="-0.51059">
        <ele>136.16394</ele>
        <time>2013-09-30T09:06:17Z</time>
      </trkpt>
      <trkpt lat="43.34742" lon="-0.51075">
        <ele>136.16394</ele>
        <time>2013-09-30T09:06:19Z</time>
      </trkpt>
      <trkpt lat="43.34734" lon="-0.51106">
        <ele>136.16394</ele>
        <time>2013-09-30T09:06:23Z</time>
      </trkpt>
      <trkpt lat="43.34694" lon="-0.51235">
        <ele>136.16394</ele>
        <time>2013-09-30T09:06:39Z</time>
      </trkpt>
      <trkpt lat="43.34708" lon="-0.51261">
        <ele>135.683105</ele>
        <time>2013-09-30T09:06:44Z</time>
      </trkpt>
      <trkpt lat="43.34775" lon="-0.51283">
        <ele>136.16394</ele>
        <time>2013-09-30T09:06:55Z</time>
      </trkpt>
      <trkpt lat="43.34866" lon="-0.51326">
        <ele>135.683105</ele>
        <time>2013-09-30T09:07:10Z</time>
      </trkpt>
      <trkpt lat="43.34948" lon="-0.51385">
        <ele>135.202515</ele>
        <time>2013-09-30T09:07:25Z</time>
      </trkpt>
      <trkpt lat="43.34997" lon="-0.51419">
        <ele>135.683105</ele>
        <time>2013-09-30T09:07:34Z</time>
      </trkpt>
      <trkpt lat="43.3503" lon="-0.51414">
        <ele>134.721924</ele>
        <time>2013-09-30T09:07:40Z</time>
      </trkpt>
      <trkpt lat="43.35046" lon="-0.51401">
        <ele>135.202515</ele>
        <time>2013-09-30T09:07:43Z</time>
      </trkpt>
      <trkpt lat="43.35073" lon="-0.51422">
        <ele>135.202515</ele>
        <time>2013-09-30T09:07:50Z</time>
      </trkpt>
      <trkpt lat="43.35076" lon="-0.51437">
        <ele>135.202515</ele>
        <time>2013-09-30T09:07:52Z</time>
      </trkpt>
      <trkpt lat="43.3509" lon="-0.51467">
        <ele>135.202515</ele>
        <time>2013-09-30T09:07:56Z</time>
      </trkpt>
      <trkpt lat="43.35118" lon="-0.51504">
        <ele>134.721924</ele>
        <time>2013-09-30T09:08:02Z</time>
      </trkpt>
      <trkpt lat="43.35141" lon="-0.51515">
        <ele>135.202515</ele>
        <time>2013-09-30T09:08:06Z</time>
      </trkpt>
      <trkpt lat="43.35187" lon="-0.51512">
        <ele>134.721924</ele>
        <time>2013-09-30T09:08:14Z</time>
      </trkpt>
      <trkpt lat="43.35236" lon="-0.51495">
        <ele>134.241211</ele>
        <time>2013-09-30T09:08:22Z</time>
      </trkpt>
      <trkpt lat="43.35242" lon="-0.51501">
        <ele>133.760498</ele>
        <time>2013-09-30T09:08:23Z</time>
      </trkpt>
      <trkpt lat="43.35303" lon="-0.51584">
        <ele>134.241211</ele>
        <time>2013-09-30T09:08:39Z</time>
      </trkpt>
      <trkpt lat="43.35307" lon="-0.51589">
        <ele>133.760498</ele>
        <time>2013-09-30T09:08:40Z</time>
      </trkpt>
      <trkpt lat="43.35348" lon="-0.51618">
        <ele>134.721924</ele>
        <time>2013-09-30T09:08:49Z</time>
      </trkpt>
      <trkpt lat="43.35414" lon="-0.51668">
        <ele>134.721924</ele>
        <time>2013-09-30T09:09:02Z</time>
      </trkpt>
      <trkpt lat="43.35418" lon="-0.51672">
        <ele>134.721924</ele>
        <time>2013-09-30T09:09:03Z</time>
      </trkpt>
      <trkpt lat="43.35427" lon="-0.51693">
        <ele>135.683105</ele>
        <time>2013-09-30T09:09:07Z</time>
      </trkpt>
      <trkpt lat="43.35435" lon="-0.51744">
        <ele>134.241211</ele>
        <time>2013-09-30T09:09:13Z</time>
      </trkpt>
      <trkpt lat="43.35452" lon="-0.51779">
        <ele>134.241211</ele>
        <time>2013-09-30T09:09:18Z</time>
      </trkpt>
      <trkpt lat="43.35507" lon="-0.51854">
        <ele>134.241211</ele>
        <time>2013-09-30T09:09:31Z</time>
      </trkpt>
      <trkpt lat="43.35529" lon="-0.51885">
        <ele>133.760498</ele>
        <time>2013-09-30T09:09:36Z</time>
      </trkpt>
      <trkpt lat="43.3554" lon="-0.51898">
        <ele>133.760498</ele>
        <time>2013-09-30T09:09:39Z</time>
      </trkpt>
      <trkpt lat="43.35548" lon="-0.51905">
        <ele>133.760498</ele>
        <time>2013-09-30T09:09:41Z</time>
      </trkpt>
      <trkpt lat="43.35567" lon="-0.51927">
        <ele>133.760498</ele>
        <time>2013-09-30T09:09:45Z</time>
      </trkpt>
      <trkpt lat="43.35618" lon="-0.5202">
        <ele>133.760498</ele>
        <time>2013-09-30T09:09:59Z</time>
      </trkpt>
      <trkpt lat="43.35621" lon="-0.52027">
        <ele>133.279907</ele>
        <time>2013-09-30T09:10:00Z</time>
      </trkpt>
      <trkpt lat="43.35648" lon="-0.52103">
        <ele>133.279907</ele>
        <time>2013-09-30T09:10:10Z</time>
      </trkpt>
      <trkpt lat="43.35645" lon="-0.52163">
        <ele>133.760498</ele>
        <time>2013-09-30T09:10:17Z</time>
      </trkpt>
      <trkpt lat="43.3561" lon="-0.52201">
        <ele>133.279907</ele>
        <time>2013-09-30T09:10:25Z</time>
      </trkpt>
      <trkpt lat="43.35597" lon="-0.52197">
        <ele>133.760498</ele>
        <time>2013-09-30T09:10:27Z</time>
      </trkpt>
      <trkpt lat="43.35585" lon="-0.52191">
        <ele>133.279907</ele>
        <time>2013-09-30T09:10:29Z</time>
      </trkpt>
      <trkpt lat="43.35547" lon="-0.52193">
        <ele>133.279907</ele>
        <time>2013-09-30T09:10:36Z</time>
      </trkpt>
      <trkpt lat="43.35499" lon="-0.52275">
        <ele>134.241211</ele>
        <time>2013-09-30T09:10:50Z</time>
      </trkpt>
      <trkpt lat="43.35466" lon="-0.52435">
        <ele>133.279907</ele>
        <time>2013-09-30T09:11:10Z</time>
      </trkpt>
      <trkpt lat="43.35473" lon="-0.52587">
        <ele>132.799316</ele>
        <time>2013-09-30T09:11:28Z</time>
      </trkpt>
      <trkpt lat="43.35497" lon="-0.52697">
        <ele>132.799316</ele>
        <time>2013-09-30T09:11:42Z</time>
      </trkpt>
      <trkpt lat="43.35513" lon="-0.52838">
        <ele>132.318604</ele>
        <time>2013-09-30T09:12:00Z</time>
      </trkpt>
      <trkpt lat="43.35507" lon="-0.52994">
        <ele>132.799316</ele>
        <time>2013-09-30T09:12:19Z</time>
      </trkpt>
      <trkpt lat="43.35507" lon="-0.53001">
        <ele>131.837891</ele>
        <time>2013-09-30T09:12:20Z</time>
      </trkpt>
      <trkpt lat="43.35513" lon="-0.53023">
        <ele>131.837891</ele>
        <time>2013-09-30T09:12:24Z</time>
      </trkpt>
      <trkpt lat="43.35533" lon="-0.53063">
        <ele>132.318604</ele>
        <time>2013-09-30T09:12:31Z</time>
      </trkpt>
      <trkpt lat="43.35567" lon="-0.53208">
        <ele>131.837891</ele>
        <time>2013-09-30T09:12:50Z</time>
      </trkpt>
      <trkpt lat="43.35608" lon="-0.53328">
        <ele>131.3573</ele>
        <time>2013-09-30T09:13:06Z</time>
      </trkpt>
      <trkpt lat="43.35679" lon="-0.53455">
        <ele>131.3573</ele>
        <time>2013-09-30T09:13:25Z</time>
      </trkpt>
      <trkpt lat="43.35705" lon="-0.53522">
        <ele>131.3573</ele>
        <time>2013-09-30T09:13:34Z</time>
      </trkpt>
      <trkpt lat="43.35717" lon="-0.53689">
        <ele>130.395996</ele>
        <time>2013-09-30T09:13:53Z</time>
      </trkpt>
      <trkpt lat="43.35722" lon="-0.53715">
        <ele>130.876709</ele>
        <time>2013-09-30T09:13:56Z</time>
      </trkpt>
      <trkpt lat="43.35775" lon="-0.53817">
        <ele>130.876709</ele>
        <time>2013-09-30T09:14:11Z</time>
      </trkpt>
      <trkpt lat="43.35848" lon="-0.53913">
        <ele>129.434692</ele>
        <time>2013-09-30T09:14:28Z</time>
      </trkpt>
      <trkpt lat="43.35862" lon="-0.53939">
        <ele>128.954102</ele>
        <time>2013-09-30T09:14:32Z</time>
      </trkpt>
      <trkpt lat="43.3589" lon="-0.54049">
        <ele>128.954102</ele>
        <time>2013-09-30T09:14:47Z</time>
      </trkpt>
      <trkpt lat="43.35911" lon="-0.54114">
        <ele>129.434692</ele>
        <time>2013-09-30T09:14:56Z</time>
      </trkpt>
      <trkpt lat="43.35983" lon="-0.54181">
        <ele>127.992554</ele>
        <time>2013-09-30T09:15:10Z</time>
      </trkpt>
      <trkpt lat="43.36018" lon="-0.54235">
        <ele>128.954102</ele>
        <time>2013-09-30T09:15:19Z</time>
      </trkpt>
      <trkpt lat="43.36028" lon="-0.54263">
        <ele>128.954102</ele>
        <time>2013-09-30T09:15:23Z</time>
      </trkpt>
      <trkpt lat="43.36024" lon="-0.54355">
        <ele>129.915283</ele>
        <time>2013-09-30T09:15:35Z</time>
      </trkpt>
      <trkpt lat="43.36015" lon="-0.54522">
        <ele>130.395996</ele>
        <time>2013-09-30T09:15:56Z</time>
      </trkpt>
      <trkpt lat="43.36008" lon="-0.54679">
        <ele>130.876709</ele>
        <time>2013-09-30T09:16:16Z</time>
      </trkpt>
      <trkpt lat="43.36" lon="-0.54877">
        <ele>129.915283</ele>
        <time>2013-09-30T09:16:41Z</time>
      </trkpt>
      <trkpt lat="43.35993" lon="-0.55073">
        <ele>129.434692</ele>
        <time>2013-09-30T09:17:05Z</time>
      </trkpt>
      <trkpt lat="43.35999" lon="-0.55238">
        <ele>128.954102</ele>
        <time>2013-09-30T09:17:25Z</time>
      </trkpt>
      <trkpt lat="43.36012" lon="-0.55265">
        <ele>128.954102</ele>
        <time>2013-09-30T09:17:29Z</time>
      </trkpt>
      <trkpt lat="43.36002" lon="-0.55309">
        <ele>129.434692</ele>
        <time>2013-09-30T09:17:36Z</time>
      </trkpt>
      <trkpt lat="43.35987" lon="-0.55366">
        <ele>130.395996</ele>
        <time>2013-09-30T09:17:44Z</time>
      </trkpt>
      <trkpt lat="43.35947" lon="-0.55379">
        <ele>130.395996</ele>
        <time>2013-09-30T09:17:51Z</time>
      </trkpt>
      <trkpt lat="43.35941" lon="-0.55408">
        <ele>129.915283</ele>
        <time>2013-09-30T09:17:55Z</time>
      </trkpt>
      <trkpt lat="43.35943" lon="-0.55425">
        <ele>128.954102</ele>
        <time>2013-09-30T09:17:57Z</time>
      </trkpt>
      <trkpt lat="43.35943" lon="-0.55442">
        <ele>128.954102</ele>
        <time>2013-09-30T09:17:59Z</time>
      </trkpt>
      <trkpt lat="43.35912" lon="-0.55624">
        <ele>128.954102</ele>
        <time>2013-09-30T09:18:21Z</time>
      </trkpt>
      <trkpt lat="43.35882" lon="-0.55797">
        <ele>129.434692</ele>
        <time>2013-09-30T09:18:43Z</time>
      </trkpt>
      <trkpt lat="43.35848" lon="-0.55991">
        <ele>129.434692</ele>
        <time>2013-09-30T09:19:07Z</time>
      </trkpt>
      <trkpt lat="43.3583" lon="-0.56111">
        <ele>128.473389</ele>
        <time>2013-09-30T09:19:22Z</time>
      </trkpt>
      <trkpt lat="43.35855" lon="-0.56222">
        <ele>128.473389</ele>
        <time>2013-09-30T09:19:36Z</time>
      </trkpt>
      <trkpt lat="43.35838" lon="-0.56286">
        <ele>128.473389</ele>
        <time>2013-09-30T09:19:46Z</time>
      </trkpt>
      <trkpt lat="43.35834" lon="-0.563">
        <ele>127.511963</ele>
        <time>2013-09-30T09:19:48Z</time>
      </trkpt>
      <trkpt lat="43.35828" lon="-0.56369">
        <ele>127.511963</ele>
        <time>2013-09-30T09:19:57Z</time>
      </trkpt>
      <trkpt lat="43.35829" lon="-0.564">
        <ele>127.511963</ele>
        <time>2013-09-30T09:20:01Z</time>
      </trkpt>
      <trkpt lat="43.35828" lon="-0.56464">
        <ele>127.031372</ele>
        <time>2013-09-30T09:20:09Z</time>
      </trkpt>
      <trkpt lat="43.35825" lon="-0.56497">
        <ele>126.550659</ele>
        <time>2013-09-30T09:20:13Z</time>
      </trkpt>
      <trkpt lat="43.3584" lon="-0.56611">
        <ele>127.511963</ele>
        <time>2013-09-30T09:20:27Z</time>
      </trkpt>
      <trkpt lat="43.3584" lon="-0.56619">
        <ele>127.031372</ele>
        <time>2013-09-30T09:20:28Z</time>
      </trkpt>
      <trkpt lat="43.35849" lon="-0.56673">
        <ele>127.511963</ele>
        <time>2013-09-30T09:20:35Z</time>
      </trkpt>
      <trkpt lat="43.35871" lon="-0.56809">
        <ele>126.550659</ele>
        <time>2013-09-30T09:20:53Z</time>
      </trkpt>
      <trkpt lat="43.35894" lon="-0.5695">
        <ele>126.550659</ele>
        <time>2013-09-30T09:21:11Z</time>
      </trkpt>
      <trkpt lat="43.35919" lon="-0.57112">
        <ele>126.069946</ele>
        <time>2013-09-30T09:21:30Z</time>
      </trkpt>
      <trkpt lat="43.35927" lon="-0.57173">
        <ele>126.069946</ele>
        <time>2013-09-30T09:21:37Z</time>
      </trkpt>
      <trkpt lat="43.35905" lon="-0.57285">
        <ele>125.108765</ele>
        <time>2013-09-30T09:21:50Z</time>
      </trkpt>
      <trkpt lat="43.35871" lon="-0.57406">
        <ele>125.108765</ele>
        <time>2013-09-30T09:22:05Z</time>
      </trkpt>
      <trkpt lat="43.35819" lon="-0.57587">
        <ele>124.147339</ele>
        <time>2013-09-30T09:22:28Z</time>
      </trkpt>
      <trkpt lat="43.35771" lon="-0.57759">
        <ele>124.628052</ele>
        <time>2013-09-30T09:22:49Z</time>
      </trkpt>
      <trkpt lat="43.35721" lon="-0.5794">
        <ele>124.147339</ele>
        <time>2013-09-30T09:23:10Z</time>
      </trkpt>
      <trkpt lat="43.35665" lon="-0.58144">
        <ele>124.628052</ele>
        <time>2013-09-30T09:23:35Z</time>
      </trkpt>
      <trkpt lat="43.35655" lon="-0.58203">
        <ele>123.666748</ele>
        <time>2013-09-30T09:23:43Z</time>
      </trkpt>
      <trkpt lat="43.35662" lon="-0.58277">
        <ele>123.666748</ele>
        <time>2013-09-30T09:23:56Z</time>
      </trkpt>
      <trkpt lat="43.3564" lon="-0.58285">
        <ele>123.186157</ele>
        <time>2013-09-30T09:24:01Z</time>
      </trkpt>
      <trkpt lat="43.35515" lon="-0.5828">
        <ele>124.147339</ele>
        <time>2013-09-30T09:24:22Z</time>
      </trkpt>
      <trkpt lat="43.35408" lon="-0.58281">
        <ele>124.147339</ele>
        <time>2013-09-30T09:24:39Z</time>
      </trkpt>
      <trkpt lat="43.35256" lon="-0.58281">
        <ele>124.628052</ele>
        <time>2013-09-30T09:25:04Z</time>
      </trkpt>
      <trkpt lat="43.35081" lon="-0.5828">
        <ele>125.589355</ele>
        <time>2013-09-30T09:25:33Z</time>
      </trkpt>
      <trkpt lat="43.34955" lon="-0.58279">
        <ele>125.108765</ele>
        <time>2013-09-30T09:25:54Z</time>
      </trkpt>
      <trkpt lat="43.34817" lon="-0.58283">
        <ele>125.108765</ele>
        <time>2013-09-30T09:26:16Z</time>
      </trkpt>
      <trkpt lat="43.34696" lon="-0.58286">
        <ele>125.108765</ele>
        <time>2013-09-30T09:26:36Z</time>
      </trkpt>
      <trkpt lat="43.34564" lon="-0.58293">
        <ele>125.108765</ele>
        <time>2013-09-30T09:26:58Z</time>
      </trkpt>
      <trkpt lat="43.34447" lon="-0.58299">
        <ele>125.108765</ele>
        <time>2013-09-30T09:27:19Z</time>
      </trkpt>
      <trkpt lat="43.34375" lon="-0.58305">
        <ele>125.108765</ele>
        <time>2013-09-30T09:27:36Z</time>
      </trkpt>
      <trkpt lat="43.34346" lon="-0.58303">
        <ele>125.108765</ele>
        <time>2013-09-30T09:27:46Z</time>
      </trkpt>
      <trkpt lat="43.34339" lon="-0.5828">
        <ele>125.108765</ele>
        <time>2013-09-30T09:27:51Z</time>
      </trkpt>
      <trkpt lat="43.34342" lon="-0.58134">
        <ele>125.108765</ele>
        <time>2013-09-30T09:28:10Z</time>
      </trkpt>
      <trkpt lat="43.34343" lon="-0.58087">
        <ele>125.108765</ele>
        <time>2013-09-30T09:28:16Z</time>
      </trkpt>
      <trkpt lat="43.34325" lon="-0.58039">
        <ele>125.108765</ele>
        <time>2013-09-30T09:28:23Z</time>
      </trkpt>
      <trkpt lat="43.34251" lon="-0.57925">
        <ele>125.589355</ele>
        <time>2013-09-30T09:28:42Z</time>
      </trkpt>
      <trkpt lat="43.34242" lon="-0.57902">
        <ele>125.589355</ele>
        <time>2013-09-30T09:28:45Z</time>
      </trkpt>
      <trkpt lat="43.34235" lon="-0.57852">
        <ele>125.589355</ele>
        <time>2013-09-30T09:28:51Z</time>
      </trkpt>
      <trkpt lat="43.3424" lon="-0.57709">
        <ele>125.108765</ele>
        <time>2013-09-30T09:29:08Z</time>
      </trkpt>
      <trkpt lat="43.3427" lon="-0.5759">
        <ele>127.992554</ele>
        <time>2013-09-30T09:29:24Z</time>
      </trkpt>
      <trkpt lat="43.34256" lon="-0.57557">
        <ele>130.395996</ele>
        <time>2013-09-30T09:29:32Z</time>
      </trkpt>
      <trkpt lat="43.34188" lon="-0.5755">
        <ele>130.876709</ele>
        <time>2013-09-30T09:29:47Z</time>
      </trkpt>
      <trkpt lat="43.34127" lon="-0.57553">
        <ele>130.395996</ele>
        <time>2013-09-30T09:29:59Z</time>
      </trkpt>
      <trkpt lat="43.34117" lon="-0.57551">
        <ele>130.876709</ele>
        <time>2013-09-30T09:30:01Z</time>
      </trkpt>
      <trkpt lat="43.34096" lon="-0.57548">
        <ele>131.3573</ele>
        <time>2013-09-30T09:30:05Z</time>
      </trkpt>
      <trkpt lat="43.34068" lon="-0.57553">
        <ele>130.876709</ele>
        <time>2013-09-30T09:30:10Z</time>
      </trkpt>
      <trkpt lat="43.34042" lon="-0.57553">
        <ele>130.395996</ele>
        <time>2013-09-30T09:30:14Z</time>
      </trkpt>
      <trkpt lat="43.33934" lon="-0.57547">
        <ele>129.434692</ele>
        <time>2013-09-30T09:30:31Z</time>
      </trkpt>
      <trkpt lat="43.33805" lon="-0.57539">
        <ele>130.395996</ele>
        <time>2013-09-30T09:30:53Z</time>
      </trkpt>
      <trkpt lat="43.337" lon="-0.57498">
        <ele>130.876709</ele>
        <time>2013-09-30T09:31:13Z</time>
      </trkpt>
      <trkpt lat="43.33611" lon="-0.57432">
        <ele>130.876709</ele>
        <time>2013-09-30T09:31:31Z</time>
      </trkpt>
      <trkpt lat="43.33541" lon="-0.57376">
        <ele>131.837891</ele>
        <time>2013-09-30T09:31:46Z</time>
      </trkpt>
      <trkpt lat="43.33462" lon="-0.57305">
        <ele>134.241211</ele>
        <time>2013-09-30T09:32:05Z</time>
      </trkpt>
      <trkpt lat="43.33421" lon="-0.5726">
        <ele>135.683105</ele>
        <time>2013-09-30T09:32:16Z</time>
      </trkpt>
      <trkpt lat="43.33397" lon="-0.57257">
        <ele>135.683105</ele>
        <time>2013-09-30T09:32:21Z</time>
      </trkpt>
      <trkpt lat="43.33356" lon="-0.57264">
        <ele>135.202515</ele>
        <time>2013-09-30T09:32:28Z</time>
      </trkpt>
      <trkpt lat="43.3327" lon="-0.5723">
        <ele>134.241211</ele>
        <time>2013-09-30T09:32:42Z</time>
      </trkpt>
      <trkpt lat="43.33169" lon="-0.5721">
        <ele>134.241211</ele>
        <time>2013-09-30T09:32:59Z</time>
      </trkpt>
      <trkpt lat="43.33148" lon="-0.57202">
        <ele>133.760498</ele>
        <time>2013-09-30T09:33:03Z</time>
      </trkpt>
      <trkpt lat="43.33132" lon="-0.57183">
        <ele>133.760498</ele>
        <time>2013-09-30T09:33:07Z</time>
      </trkpt>
      <trkpt lat="43.33116" lon="-0.5717">
        <ele>135.202515</ele>
        <time>2013-09-30T09:33:11Z</time>
      </trkpt>
      <trkpt lat="43.33021" lon="-0.57159">
        <ele>134.721924</ele>
        <time>2013-09-30T09:33:29Z</time>
      </trkpt>
      <trkpt lat="43.32938" lon="-0.5714">
        <ele>134.721924</ele>
        <time>2013-09-30T09:33:45Z</time>
      </trkpt>
      <trkpt lat="43.32857" lon="-0.57098">
        <ele>134.721924</ele>
        <time>2013-09-30T09:34:01Z</time>
      </trkpt>
      <trkpt lat="43.32772" lon="-0.57059">
        <ele>135.202515</ele>
        <time>2013-09-30T09:34:17Z</time>
      </trkpt>
      <trkpt lat="43.32737" lon="-0.57055">
        <ele>135.683105</ele>
        <time>2013-09-30T09:34:24Z</time>
      </trkpt>
      <trkpt lat="43.32722" lon="-0.57078">
        <ele>135.683105</ele>
        <time>2013-09-30T09:34:29Z</time>
      </trkpt>
      <trkpt lat="43.3271" lon="-0.57115">
        <ele>134.241211</ele>
        <time>2013-09-30T09:34:34Z</time>
      </trkpt>
      <trkpt lat="43.32689" lon="-0.57145">
        <ele>134.241211</ele>
        <time>2013-09-30T09:34:39Z</time>
      </trkpt>
      <trkpt lat="43.32666" lon="-0.57166">
        <ele>134.241211</ele>
        <time>2013-09-30T09:34:44Z</time>
      </trkpt>
      <trkpt lat="43.32657" lon="-0.57183">
        <ele>134.241211</ele>
        <time>2013-09-30T09:34:49Z</time>
      </trkpt>
      <trkpt lat="43.32655" lon="-0.57197">
        <ele>133.279907</ele>
        <time>2013-09-30T09:35:03Z</time>
      </trkpt>
      <trkpt lat="43.32656" lon="-0.57197">
        <ele>133.760498</ele>
        <time>2013-09-30T09:36:00Z</time>
      </trkpt>
      <trkpt lat="43.32652" lon="-0.5725">
        <ele>133.279907</ele>
        <time>2013-09-30T09:36:11Z</time>
      </trkpt>
      <trkpt lat="43.32637" lon="-0.57376">
        <ele>132.799316</ele>
        <time>2013-09-30T09:36:29Z</time>
      </trkpt>
      <trkpt lat="43.32635" lon="-0.5739">
        <ele>132.318604</ele>
        <time>2013-09-30T09:36:31Z</time>
      </trkpt>
      <trkpt lat="43.32616" lon="-0.57465">
        <ele>132.799316</ele>
        <time>2013-09-30T09:36:42Z</time>
      </trkpt>
      <trkpt lat="43.32616" lon="-0.5754">
        <ele>134.241211</ele>
        <time>2013-09-30T09:36:54Z</time>
      </trkpt>
      <trkpt lat="43.32612" lon="-0.57564">
        <ele>134.721924</ele>
        <time>2013-09-30T09:36:58Z</time>
      </trkpt>
      <trkpt lat="43.32585" lon="-0.57621">
        <ele>136.644653</ele>
        <time>2013-09-30T09:37:11Z</time>
      </trkpt>
      <trkpt lat="43.32578" lon="-0.57634">
        <ele>137.605835</ele>
        <time>2013-09-30T09:37:14Z</time>
      </trkpt>
      <trkpt lat="43.32541" lon="-0.57678">
        <ele>136.644653</ele>
        <time>2013-09-30T09:37:26Z</time>
      </trkpt>
      <trkpt lat="43.32534" lon="-0.57684">
        <ele>137.125244</ele>
        <time>2013-09-30T09:37:28Z</time>
      </trkpt>
      <trkpt lat="43.32501" lon="-0.57723">
        <ele>140.489868</ele>
        <time>2013-09-30T09:37:40Z</time>
      </trkpt>
      <trkpt lat="43.32452" lon="-0.57728">
        <ele>140.970459</ele>
        <time>2013-09-30T09:37:54Z</time>
      </trkpt>
      <trkpt lat="43.3241" lon="-0.57741">
        <ele>143.85437</ele>
        <time>2013-09-30T09:38:07Z</time>
      </trkpt>
      <trkpt lat="43.32367" lon="-0.57744">
        <ele>146.738403</ele>
        <time>2013-09-30T09:38:23Z</time>
      </trkpt>
      <trkpt lat="43.3233" lon="-0.57763">
        <ele>148.18042</ele>
        <time>2013-09-30T09:38:36Z</time>
      </trkpt>
      <trkpt lat="43.32308" lon="-0.57829">
        <ele>151.544922</ele>
        <time>2013-09-30T09:38:52Z</time>
      </trkpt>
      <trkpt lat="43.32298" lon="-0.57859">
        <ele>152.986938</ele>
        <time>2013-09-30T09:38:59Z</time>
      </trkpt>
      <trkpt lat="43.32271" lon="-0.57865">
        <ele>152.986938</ele>
        <time>2013-09-30T09:39:08Z</time>
      </trkpt>
      <trkpt lat="43.32267" lon="-0.57872">
        <ele>152.986938</ele>
        <time>2013-09-30T09:39:13Z</time>
      </trkpt>
      <trkpt lat="43.32232" lon="-0.57856">
        <ele>153.467651</ele>
        <time>2013-09-30T09:39:24Z</time>
      </trkpt>
      <trkpt lat="43.3213" lon="-0.57802">
        <ele>153.948364</ele>
        <time>2013-09-30T09:39:46Z</time>
      </trkpt>
      <trkpt lat="43.32031" lon="-0.57764">
        <ele>153.467651</ele>
        <time>2013-09-30T09:40:06Z</time>
      </trkpt>
      <trkpt lat="43.32016" lon="-0.57759">
        <ele>152.506348</ele>
        <time>2013-09-30T09:40:17Z</time>
      </trkpt>
      <trkpt lat="43.31981" lon="-0.57748">
        <ele>153.467651</ele>
        <time>2013-09-30T09:40:29Z</time>
      </trkpt>
      <trkpt lat="43.3191" lon="-0.57714">
        <ele>156.351563</ele>
        <time>2013-09-30T09:40:46Z</time>
      </trkpt>
      <trkpt lat="43.31827" lon="-0.57683">
        <ele>159.235474</ele>
        <time>2013-09-30T09:41:05Z</time>
      </trkpt>
      <trkpt lat="43.318" lon="-0.57683">
        <ele>158.754761</ele>
        <time>2013-09-30T09:41:10Z</time>
      </trkpt>
      <trkpt lat="43.31766" lon="-0.57716">
        <ele>159.235474</ele>
        <time>2013-09-30T09:41:18Z</time>
      </trkpt>
      <trkpt lat="43.31761" lon="-0.57736">
        <ele>159.716187</ele>
        <time>2013-09-30T09:41:21Z</time>
      </trkpt>
      <trkpt lat="43.3176" lon="-0.57748">
        <ele>160.67749</ele>
        <time>2013-09-30T09:41:23Z</time>
      </trkpt>
      <trkpt lat="43.31753" lon="-0.57822">
        <ele>162.600098</ele>
        <time>2013-09-30T09:41:35Z</time>
      </trkpt>
      <trkpt lat="43.31735" lon="-0.5785">
        <ele>162.600098</ele>
        <time>2013-09-30T09:41:41Z</time>
      </trkpt>
      <trkpt lat="43.31684" lon="-0.57879">
        <ele>158.27417</ele>
        <time>2013-09-30T09:41:49Z</time>
      </trkpt>
      <trkpt lat="43.31678" lon="-0.57883">
        <ele>158.27417</ele>
        <time>2013-09-30T09:41:50Z</time>
      </trkpt>
      <trkpt lat="43.3167" lon="-0.57917">
        <ele>157.312866</ele>
        <time>2013-09-30T09:41:57Z</time>
      </trkpt>
      <trkpt lat="43.31692" lon="-0.57981">
        <ele>161.158203</ele>
        <time>2013-09-30T09:42:12Z</time>
      </trkpt>
      <trkpt lat="43.31712" lon="-0.58072">
        <ele>164.042114</ele>
        <time>2013-09-30T09:42:32Z</time>
      </trkpt>
      <trkpt lat="43.31743" lon="-0.5815">
        <ele>165.003418</ele>
        <time>2013-09-30T09:42:52Z</time>
      </trkpt>
      <trkpt lat="43.31759" lon="-0.58206">
        <ele>167.887329</ele>
        <time>2013-09-30T09:43:06Z</time>
      </trkpt>
      <trkpt lat="43.3177" lon="-0.5827">
        <ele>171.252075</ele>
        <time>2013-09-30T09:43:21Z</time>
      </trkpt>
      <trkpt lat="43.3179" lon="-0.58348">
        <ele>174.135864</ele>
        <time>2013-09-30T09:43:41Z</time>
      </trkpt>
      <trkpt lat="43.31808" lon="-0.58387">
        <ele>174.135864</ele>
        <time>2013-09-30T09:43:52Z</time>
      </trkpt>
      <trkpt lat="43.31777" lon="-0.58449">
        <ele>173.174683</ele>
        <time>2013-09-30T09:44:02Z</time>
      </trkpt>
      <trkpt lat="43.31732" lon="-0.58494">
        <ele>175.09729</ele>
        <time>2013-09-30T09:44:16Z</time>
      </trkpt>
      <trkpt lat="43.31712" lon="-0.58515">
        <ele>178.461914</ele>
        <time>2013-09-30T09:44:27Z</time>
      </trkpt>
      <trkpt lat="43.31701" lon="-0.5852">
        <ele>179.903809</ele>
        <time>2013-09-30T09:44:33Z</time>
      </trkpt>
      <trkpt lat="43.31685" lon="-0.58523">
        <ele>183.268433</ele>
        <time>2013-09-30T09:44:42Z</time>
      </trkpt>
      <trkpt lat="43.31667" lon="-0.58524">
        <ele>186.152466</ele>
        <time>2013-09-30T09:44:53Z</time>
      </trkpt>
      <trkpt lat="43.31652" lon="-0.58526">
        <ele>189.516968</ele>
        <time>2013-09-30T09:45:03Z</time>
      </trkpt>
      <trkpt lat="43.31651" lon="-0.58526">
        <ele>189.516968</ele>
        <time>2013-09-30T09:45:04Z</time>
      </trkpt>
      <trkpt lat="43.31638" lon="-0.58527">
        <ele>191.920288</ele>
        <time>2013-09-30T09:45:13Z</time>
      </trkpt>
      <trkpt lat="43.3162" lon="-0.58531">
        <ele>195.284912</ele>
        <time>2013-09-30T09:45:26Z</time>
      </trkpt>
      <trkpt lat="43.31617" lon="-0.58531">
        <ele>196.726929</ele>
        <time>2013-09-30T09:45:28Z</time>
      </trkpt>
      <trkpt lat="43.31591" lon="-0.5854">
        <ele>199.61084</ele>
        <time>2013-09-30T09:45:46Z</time>
      </trkpt>
      <trkpt lat="43.31586" lon="-0.58542">
        <ele>200.091675</ele>
        <time>2013-09-30T09:45:49Z</time>
      </trkpt>
      <trkpt lat="43.31584" lon="-0.58553">
        <ele>201.052856</ele>
        <time>2013-09-30T09:45:55Z</time>
      </trkpt>
      <trkpt lat="43.31588" lon="-0.58589">
        <ele>203.456177</ele>
        <time>2013-09-30T09:46:11Z</time>
      </trkpt>
      <trkpt lat="43.31585" lon="-0.5864">
        <ele>206.340088</ele>
        <time>2013-09-30T09:46:26Z</time>
      </trkpt>
      <trkpt lat="43.31584" lon="-0.58644">
        <ele>207.301392</ele>
        <time>2013-09-30T09:46:28Z</time>
      </trkpt>
      <trkpt lat="43.31578" lon="-0.58658">
        <ele>207.301392</ele>
        <time>2013-09-30T09:46:40Z</time>
      </trkpt>
      <trkpt lat="43.31578" lon="-0.58656">
        <ele>207.782104</ele>
        <time>2013-09-30T09:47:01Z</time>
      </trkpt>
      <trkpt lat="43.31578" lon="-0.58655">
        <ele>206.340088</ele>
        <time>2013-09-30T09:47:04Z</time>
      </trkpt>
      <trkpt lat="43.31579" lon="-0.58654">
        <ele>208.262817</ele>
        <time>2013-09-30T09:47:19Z</time>
      </trkpt>
    </trkseg>
  </trk>
</gpx>